<?xml version="1.0" encoding="UTF-8" standalone="no" ?>
<gpx xmlns="http://www.topografix.com/GPX/1/1" xmlns:xsi="http://www.w3.org/2001/XMLSchema-instance" xsi:schemaLocation="http://www.topografix.com/GPX/1/1 http://www.topografix.com/GPX/1/1/gpx.xsd" version="1.1" creator="VisuGPX - https://www.visugpx.com">
  <metadata>
    <name>circuit chidrac pardines issoire 13 11 12</name>
    <desc><![CDATA[petit circuit 1h30]]></desc>
  </metadata>
  <trk>
    <name><![CDATA[2012-11-13 14:25]]></name>
    <desc><![CDATA[<h1>OruxMaps</h1><br /><hr align="center" width="480" style="height: 2px; width: 517px"/><h2>Nom: 2012-11-13 14:25</h2><br /><p>Temps de départ: 11/13/2012 14:25</p><p>Temps d'arrivée: 11/13/2012 15:56</p><p>Distance: 25,7 km (01:25)</p><p>Temps déplacement: 01:21</p><p>Vitesse moyenne: 18 km/h</p><p>Vitesse moyenne: 18,8 km/h</p><p>Vitess Max.: 49,6 km/h</p><p>Altitude minimale: 399 m</p><p>Altitude maximale: 613 m</p><p>Vitesse d'élévation: 554,1 m/h</p><p>Vitesse de descente: -1265,1 m/h</p><p>Gain Altitude: 426 m</p><p>Perte Altitude: -436 m</p><p>Temps d'élévation: 00:46</p><p>Temps de descente: 00:20</p><hr align="center" width="480" style="height: 2px; width: 517px"/>]]></desc>
    <trkseg>
      <trkpt lat="45.50586" lon="3.22148">
        <ele>549</ele>
        <time>2012-11-13T13:30:34Z</time>
      </trkpt>
      <trkpt lat="45.50599" lon="3.22128">
        <ele>550</ele>
        <time>2012-11-13T13:30:39Z</time>
      </trkpt>
      <trkpt lat="45.50613" lon="3.22106">
        <ele>551</ele>
        <time>2012-11-13T13:30:45Z</time>
      </trkpt>
      <trkpt lat="45.50626" lon="3.22087">
        <ele>552</ele>
        <time>2012-11-13T13:30:51Z</time>
      </trkpt>
      <trkpt lat="45.50643" lon="3.22071">
        <ele>554</ele>
        <time>2012-11-13T13:30:58Z</time>
      </trkpt>
      <trkpt lat="45.50662" lon="3.22058">
        <ele>554</ele>
        <time>2012-11-13T13:31:04Z</time>
      </trkpt>
      <trkpt lat="45.50673" lon="3.22034">
        <ele>555</ele>
        <time>2012-11-13T13:31:09Z</time>
      </trkpt>
      <trkpt lat="45.50675" lon="3.22008">
        <ele>555</ele>
        <time>2012-11-13T13:31:15Z</time>
      </trkpt>
      <trkpt lat="45.50671" lon="3.21981">
        <ele>555</ele>
        <time>2012-11-13T13:31:21Z</time>
      </trkpt>
      <trkpt lat="45.50654" lon="3.21969">
        <ele>553</ele>
        <time>2012-11-13T13:31:26Z</time>
      </trkpt>
      <trkpt lat="45.50645" lon="3.21947">
        <ele>552</ele>
        <time>2012-11-13T13:31:30Z</time>
      </trkpt>
      <trkpt lat="45.50653" lon="3.21921">
        <ele>552</ele>
        <time>2012-11-13T13:31:34Z</time>
      </trkpt>
      <trkpt lat="45.50671" lon="3.21902">
        <ele>552</ele>
        <time>2012-11-13T13:31:38Z</time>
      </trkpt>
      <trkpt lat="45.50685" lon="3.21886">
        <ele>551</ele>
        <time>2012-11-13T13:31:44Z</time>
      </trkpt>
      <trkpt lat="45.50667" lon="3.21882">
        <ele>550</ele>
        <time>2012-11-13T13:31:51Z</time>
      </trkpt>
      <trkpt lat="45.50648" lon="3.21873">
        <ele>545</ele>
        <time>2012-11-13T13:31:55Z</time>
      </trkpt>
      <trkpt lat="45.50629" lon="3.21862">
        <ele>544</ele>
        <time>2012-11-13T13:31:59Z</time>
      </trkpt>
      <trkpt lat="45.50614" lon="3.2184">
        <ele>542</ele>
        <time>2012-11-13T13:32:03Z</time>
      </trkpt>
      <trkpt lat="45.50604" lon="3.21814">
        <ele>536</ele>
        <time>2012-11-13T13:32:09Z</time>
      </trkpt>
      <trkpt lat="45.50595" lon="3.21792">
        <ele>534</ele>
        <time>2012-11-13T13:32:14Z</time>
      </trkpt>
      <trkpt lat="45.50603" lon="3.21766">
        <ele>533</ele>
        <time>2012-11-13T13:32:20Z</time>
      </trkpt>
      <trkpt lat="45.50612" lon="3.21743">
        <ele>528</ele>
        <time>2012-11-13T13:32:23Z</time>
      </trkpt>
      <trkpt lat="45.50608" lon="3.2171">
        <ele>526</ele>
        <time>2012-11-13T13:32:25Z</time>
      </trkpt>
      <trkpt lat="45.50602" lon="3.21678">
        <ele>524</ele>
        <time>2012-11-13T13:32:28Z</time>
      </trkpt>
      <trkpt lat="45.50611" lon="3.21648">
        <ele>521</ele>
        <time>2012-11-13T13:32:31Z</time>
      </trkpt>
      <trkpt lat="45.50624" lon="3.21623">
        <ele>520</ele>
        <time>2012-11-13T13:32:34Z</time>
      </trkpt>
      <trkpt lat="45.50635" lon="3.21598">
        <ele>520</ele>
        <time>2012-11-13T13:32:37Z</time>
      </trkpt>
      <trkpt lat="45.50647" lon="3.21573">
        <ele>519</ele>
        <time>2012-11-13T13:32:40Z</time>
      </trkpt>
      <trkpt lat="45.50655" lon="3.21546">
        <ele>518</ele>
        <time>2012-11-13T13:32:43Z</time>
      </trkpt>
      <trkpt lat="45.50661" lon="3.21519">
        <ele>518</ele>
        <time>2012-11-13T13:32:46Z</time>
      </trkpt>
      <trkpt lat="45.50668" lon="3.21488">
        <ele>520</ele>
        <time>2012-11-13T13:32:49Z</time>
      </trkpt>
      <trkpt lat="45.50676" lon="3.21459">
        <ele>521</ele>
        <time>2012-11-13T13:32:52Z</time>
      </trkpt>
      <trkpt lat="45.50683" lon="3.21433">
        <ele>520</ele>
        <time>2012-11-13T13:32:55Z</time>
      </trkpt>
      <trkpt lat="45.50687" lon="3.21405">
        <ele>519</ele>
        <time>2012-11-13T13:32:58Z</time>
      </trkpt>
      <trkpt lat="45.50691" lon="3.2138">
        <ele>520</ele>
        <time>2012-11-13T13:33:01Z</time>
      </trkpt>
      <trkpt lat="45.50694" lon="3.21351">
        <ele>519</ele>
        <time>2012-11-13T13:33:04Z</time>
      </trkpt>
      <trkpt lat="45.50699" lon="3.21325">
        <ele>517</ele>
        <time>2012-11-13T13:33:07Z</time>
      </trkpt>
      <trkpt lat="45.50704" lon="3.21299">
        <ele>518</ele>
        <time>2012-11-13T13:33:10Z</time>
      </trkpt>
      <trkpt lat="45.50712" lon="3.21267">
        <ele>518</ele>
        <time>2012-11-13T13:33:14Z</time>
      </trkpt>
      <trkpt lat="45.5072" lon="3.21243">
        <ele>515</ele>
        <time>2012-11-13T13:33:17Z</time>
      </trkpt>
      <trkpt lat="45.50732" lon="3.21215">
        <ele>515</ele>
        <time>2012-11-13T13:33:21Z</time>
      </trkpt>
      <trkpt lat="45.50741" lon="3.21192">
        <ele>515</ele>
        <time>2012-11-13T13:33:24Z</time>
      </trkpt>
      <trkpt lat="45.50752" lon="3.21172">
        <ele>517</ele>
        <time>2012-11-13T13:33:27Z</time>
      </trkpt>
      <trkpt lat="45.50765" lon="3.21153">
        <ele>515</ele>
        <time>2012-11-13T13:33:30Z</time>
      </trkpt>
      <trkpt lat="45.50779" lon="3.21132">
        <ele>514</ele>
        <time>2012-11-13T13:33:33Z</time>
      </trkpt>
      <trkpt lat="45.50792" lon="3.21113">
        <ele>513</ele>
        <time>2012-11-13T13:33:35Z</time>
      </trkpt>
      <trkpt lat="45.5081" lon="3.21091">
        <ele>512</ele>
        <time>2012-11-13T13:33:38Z</time>
      </trkpt>
      <trkpt lat="45.5083" lon="3.21074">
        <ele>507</ele>
        <time>2012-11-13T13:33:41Z</time>
      </trkpt>
      <trkpt lat="45.50853" lon="3.21069">
        <ele>505</ele>
        <time>2012-11-13T13:33:44Z</time>
      </trkpt>
      <trkpt lat="45.50879" lon="3.21073">
        <ele>504</ele>
        <time>2012-11-13T13:33:47Z</time>
      </trkpt>
      <trkpt lat="45.50904" lon="3.21076">
        <ele>505</ele>
        <time>2012-11-13T13:33:50Z</time>
      </trkpt>
      <trkpt lat="45.50927" lon="3.21075">
        <ele>505</ele>
        <time>2012-11-13T13:33:53Z</time>
      </trkpt>
      <trkpt lat="45.50951" lon="3.21067">
        <ele>504</ele>
        <time>2012-11-13T13:33:56Z</time>
      </trkpt>
      <trkpt lat="45.50973" lon="3.21055">
        <ele>504</ele>
        <time>2012-11-13T13:33:59Z</time>
      </trkpt>
      <trkpt lat="45.50996" lon="3.21039">
        <ele>503</ele>
        <time>2012-11-13T13:34:02Z</time>
      </trkpt>
      <trkpt lat="45.51016" lon="3.21025">
        <ele>503</ele>
        <time>2012-11-13T13:34:05Z</time>
      </trkpt>
      <trkpt lat="45.51035" lon="3.21009">
        <ele>503</ele>
        <time>2012-11-13T13:34:08Z</time>
      </trkpt>
      <trkpt lat="45.51053" lon="3.20999">
        <ele>499</ele>
        <time>2012-11-13T13:34:11Z</time>
      </trkpt>
      <trkpt lat="45.5107" lon="3.2099">
        <ele>500</ele>
        <time>2012-11-13T13:34:14Z</time>
      </trkpt>
      <trkpt lat="45.51088" lon="3.20981">
        <ele>500</ele>
        <time>2012-11-13T13:34:17Z</time>
      </trkpt>
      <trkpt lat="45.51108" lon="3.20973">
        <ele>499</ele>
        <time>2012-11-13T13:34:20Z</time>
      </trkpt>
      <trkpt lat="45.51133" lon="3.20968">
        <ele>498</ele>
        <time>2012-11-13T13:34:23Z</time>
      </trkpt>
      <trkpt lat="45.51157" lon="3.20965">
        <ele>498</ele>
        <time>2012-11-13T13:34:26Z</time>
      </trkpt>
      <trkpt lat="45.51177" lon="3.20959">
        <ele>498</ele>
        <time>2012-11-13T13:34:29Z</time>
      </trkpt>
      <trkpt lat="45.51196" lon="3.20956">
        <ele>498</ele>
        <time>2012-11-13T13:34:32Z</time>
      </trkpt>
      <trkpt lat="45.51216" lon="3.20951">
        <ele>498</ele>
        <time>2012-11-13T13:34:35Z</time>
      </trkpt>
      <trkpt lat="45.51237" lon="3.20947">
        <ele>498</ele>
        <time>2012-11-13T13:34:38Z</time>
      </trkpt>
      <trkpt lat="45.51257" lon="3.20939">
        <ele>499</ele>
        <time>2012-11-13T13:34:41Z</time>
      </trkpt>
      <trkpt lat="45.51275" lon="3.20932">
        <ele>499</ele>
        <time>2012-11-13T13:34:44Z</time>
      </trkpt>
      <trkpt lat="45.51297" lon="3.20926">
        <ele>500</ele>
        <time>2012-11-13T13:34:48Z</time>
      </trkpt>
      <trkpt lat="45.51318" lon="3.2092">
        <ele>500</ele>
        <time>2012-11-13T13:34:52Z</time>
      </trkpt>
      <trkpt lat="45.51338" lon="3.20918">
        <ele>500</ele>
        <time>2012-11-13T13:34:56Z</time>
      </trkpt>
      <trkpt lat="45.51357" lon="3.20912">
        <ele>500</ele>
        <time>2012-11-13T13:35:00Z</time>
      </trkpt>
      <trkpt lat="45.51378" lon="3.20908">
        <ele>500</ele>
        <time>2012-11-13T13:35:05Z</time>
      </trkpt>
      <trkpt lat="45.51397" lon="3.20903">
        <ele>501</ele>
        <time>2012-11-13T13:35:10Z</time>
      </trkpt>
      <trkpt lat="45.51417" lon="3.20895">
        <ele>505</ele>
        <time>2012-11-13T13:35:16Z</time>
      </trkpt>
      <trkpt lat="45.51436" lon="3.20889">
        <ele>506</ele>
        <time>2012-11-13T13:35:22Z</time>
      </trkpt>
      <trkpt lat="45.51456" lon="3.20886">
        <ele>507</ele>
        <time>2012-11-13T13:35:29Z</time>
      </trkpt>
      <trkpt lat="45.51476" lon="3.20877">
        <ele>508</ele>
        <time>2012-11-13T13:35:36Z</time>
      </trkpt>
      <trkpt lat="45.51477" lon="3.20848">
        <ele>508</ele>
        <time>2012-11-13T13:35:42Z</time>
      </trkpt>
      <trkpt lat="45.51476" lon="3.20816">
        <ele>506</ele>
        <time>2012-11-13T13:35:46Z</time>
      </trkpt>
      <trkpt lat="45.51476" lon="3.20789">
        <ele>505</ele>
        <time>2012-11-13T13:35:49Z</time>
      </trkpt>
      <trkpt lat="45.51477" lon="3.2076">
        <ele>505</ele>
        <time>2012-11-13T13:35:52Z</time>
      </trkpt>
      <trkpt lat="45.51477" lon="3.20728">
        <ele>503</ele>
        <time>2012-11-13T13:35:55Z</time>
      </trkpt>
      <trkpt lat="45.51477" lon="3.20692">
        <ele>502</ele>
        <time>2012-11-13T13:35:58Z</time>
      </trkpt>
      <trkpt lat="45.51475" lon="3.20666">
        <ele>501</ele>
        <time>2012-11-13T13:36:00Z</time>
      </trkpt>
      <trkpt lat="45.51468" lon="3.20631">
        <ele>500</ele>
        <time>2012-11-13T13:36:02Z</time>
      </trkpt>
      <trkpt lat="45.5146" lon="3.20607">
        <ele>499</ele>
        <time>2012-11-13T13:36:05Z</time>
      </trkpt>
      <trkpt lat="45.51448" lon="3.20573">
        <ele>496</ele>
        <time>2012-11-13T13:36:08Z</time>
      </trkpt>
      <trkpt lat="45.5144" lon="3.20548">
        <ele>496</ele>
        <time>2012-11-13T13:36:09Z</time>
      </trkpt>
      <trkpt lat="45.5143" lon="3.20521">
        <ele>495</ele>
        <time>2012-11-13T13:36:13Z</time>
      </trkpt>
      <trkpt lat="45.51427" lon="3.20493">
        <ele>493</ele>
        <time>2012-11-13T13:36:18Z</time>
      </trkpt>
      <trkpt lat="45.51442" lon="3.20475">
        <ele>493</ele>
        <time>2012-11-13T13:36:24Z</time>
      </trkpt>
      <trkpt lat="45.51457" lon="3.20456">
        <ele>494</ele>
        <time>2012-11-13T13:36:29Z</time>
      </trkpt>
      <trkpt lat="45.51472" lon="3.20437">
        <ele>494</ele>
        <time>2012-11-13T13:36:34Z</time>
      </trkpt>
      <trkpt lat="45.51489" lon="3.2042">
        <ele>495</ele>
        <time>2012-11-13T13:36:40Z</time>
      </trkpt>
      <trkpt lat="45.51509" lon="3.20408">
        <ele>497</ele>
        <time>2012-11-13T13:36:46Z</time>
      </trkpt>
      <trkpt lat="45.51528" lon="3.20399">
        <ele>498</ele>
        <time>2012-11-13T13:36:53Z</time>
      </trkpt>
      <trkpt lat="45.51543" lon="3.20385">
        <ele>499</ele>
        <time>2012-11-13T13:36:59Z</time>
      </trkpt>
      <trkpt lat="45.51557" lon="3.20363">
        <ele>499</ele>
        <time>2012-11-13T13:37:05Z</time>
      </trkpt>
      <trkpt lat="45.51572" lon="3.20342">
        <ele>500</ele>
        <time>2012-11-13T13:37:11Z</time>
      </trkpt>
      <trkpt lat="45.51588" lon="3.20322">
        <ele>503</ele>
        <time>2012-11-13T13:37:17Z</time>
      </trkpt>
      <trkpt lat="45.51599" lon="3.20299">
        <ele>504</ele>
        <time>2012-11-13T13:37:22Z</time>
      </trkpt>
      <trkpt lat="45.51613" lon="3.20279">
        <ele>505</ele>
        <time>2012-11-13T13:37:28Z</time>
      </trkpt>
      <trkpt lat="45.51626" lon="3.20258">
        <ele>505</ele>
        <time>2012-11-13T13:37:34Z</time>
      </trkpt>
      <trkpt lat="45.51638" lon="3.20238">
        <ele>504</ele>
        <time>2012-11-13T13:37:39Z</time>
      </trkpt>
      <trkpt lat="45.51654" lon="3.20221">
        <ele>504</ele>
        <time>2012-11-13T13:37:45Z</time>
      </trkpt>
      <trkpt lat="45.51667" lon="3.202">
        <ele>510</ele>
        <time>2012-11-13T13:37:52Z</time>
      </trkpt>
      <trkpt lat="45.51683" lon="3.2018">
        <ele>509</ele>
        <time>2012-11-13T13:37:59Z</time>
      </trkpt>
      <trkpt lat="45.51699" lon="3.20163">
        <ele>507</ele>
        <time>2012-11-13T13:38:06Z</time>
      </trkpt>
      <trkpt lat="45.51714" lon="3.20145">
        <ele>508</ele>
        <time>2012-11-13T13:38:12Z</time>
      </trkpt>
      <trkpt lat="45.51729" lon="3.20127">
        <ele>508</ele>
        <time>2012-11-13T13:38:18Z</time>
      </trkpt>
      <trkpt lat="45.51742" lon="3.20109">
        <ele>508</ele>
        <time>2012-11-13T13:38:24Z</time>
      </trkpt>
      <trkpt lat="45.51735" lon="3.20085">
        <ele>508</ele>
        <time>2012-11-13T13:38:33Z</time>
      </trkpt>
      <trkpt lat="45.51722" lon="3.20066">
        <ele>504</ele>
        <time>2012-11-13T13:38:36Z</time>
      </trkpt>
      <trkpt lat="45.51705" lon="3.20043">
        <ele>503</ele>
        <time>2012-11-13T13:38:39Z</time>
      </trkpt>
      <trkpt lat="45.51689" lon="3.20016">
        <ele>501</ele>
        <time>2012-11-13T13:38:42Z</time>
      </trkpt>
      <trkpt lat="45.5167" lon="3.1999">
        <ele>498</ele>
        <time>2012-11-13T13:38:45Z</time>
      </trkpt>
      <trkpt lat="45.5165" lon="3.19966">
        <ele>494</ele>
        <time>2012-11-13T13:38:48Z</time>
      </trkpt>
      <trkpt lat="45.51635" lon="3.19949">
        <ele>493</ele>
        <time>2012-11-13T13:38:50Z</time>
      </trkpt>
      <trkpt lat="45.5162" lon="3.19932">
        <ele>492</ele>
        <time>2012-11-13T13:38:52Z</time>
      </trkpt>
      <trkpt lat="45.51606" lon="3.19915">
        <ele>490</ele>
        <time>2012-11-13T13:38:54Z</time>
      </trkpt>
      <trkpt lat="45.51586" lon="3.19891">
        <ele>490</ele>
        <time>2012-11-13T13:38:57Z</time>
      </trkpt>
      <trkpt lat="45.51569" lon="3.19868">
        <ele>486</ele>
        <time>2012-11-13T13:39:00Z</time>
      </trkpt>
      <trkpt lat="45.51553" lon="3.19846">
        <ele>486</ele>
        <time>2012-11-13T13:39:02Z</time>
      </trkpt>
      <trkpt lat="45.5154" lon="3.19824">
        <ele>485</ele>
        <time>2012-11-13T13:39:06Z</time>
      </trkpt>
      <trkpt lat="45.51528" lon="3.19803">
        <ele>485</ele>
        <time>2012-11-13T13:39:09Z</time>
      </trkpt>
      <trkpt lat="45.51512" lon="3.19777">
        <ele>484</ele>
        <time>2012-11-13T13:39:13Z</time>
      </trkpt>
      <trkpt lat="45.515" lon="3.19752">
        <ele>482</ele>
        <time>2012-11-13T13:39:17Z</time>
      </trkpt>
      <trkpt lat="45.51508" lon="3.19729">
        <ele>484</ele>
        <time>2012-11-13T13:39:24Z</time>
      </trkpt>
      <trkpt lat="45.51526" lon="3.19712">
        <ele>484</ele>
        <time>2012-11-13T13:39:30Z</time>
      </trkpt>
      <trkpt lat="45.51544" lon="3.19696">
        <ele>485</ele>
        <time>2012-11-13T13:39:35Z</time>
      </trkpt>
      <trkpt lat="45.5156" lon="3.19683">
        <ele>485</ele>
        <time>2012-11-13T13:39:39Z</time>
      </trkpt>
      <trkpt lat="45.51579" lon="3.19667">
        <ele>487</ele>
        <time>2012-11-13T13:39:44Z</time>
      </trkpt>
      <trkpt lat="45.51595" lon="3.19652">
        <ele>488</ele>
        <time>2012-11-13T13:39:48Z</time>
      </trkpt>
      <trkpt lat="45.51614" lon="3.19635">
        <ele>489</ele>
        <time>2012-11-13T13:39:53Z</time>
      </trkpt>
      <trkpt lat="45.51632" lon="3.19618">
        <ele>489</ele>
        <time>2012-11-13T13:39:58Z</time>
      </trkpt>
      <trkpt lat="45.51647" lon="3.19601">
        <ele>490</ele>
        <time>2012-11-13T13:40:02Z</time>
      </trkpt>
      <trkpt lat="45.51662" lon="3.19584">
        <ele>491</ele>
        <time>2012-11-13T13:40:06Z</time>
      </trkpt>
      <trkpt lat="45.51681" lon="3.1957">
        <ele>492</ele>
        <time>2012-11-13T13:40:11Z</time>
      </trkpt>
      <trkpt lat="45.51697" lon="3.19557">
        <ele>492</ele>
        <time>2012-11-13T13:40:15Z</time>
      </trkpt>
      <trkpt lat="45.51714" lon="3.19542">
        <ele>492</ele>
        <time>2012-11-13T13:40:20Z</time>
      </trkpt>
      <trkpt lat="45.51733" lon="3.19525">
        <ele>492</ele>
        <time>2012-11-13T13:40:25Z</time>
      </trkpt>
      <trkpt lat="45.51751" lon="3.19507">
        <ele>494</ele>
        <time>2012-11-13T13:40:30Z</time>
      </trkpt>
      <trkpt lat="45.5177" lon="3.19491">
        <ele>494</ele>
        <time>2012-11-13T13:40:35Z</time>
      </trkpt>
      <trkpt lat="45.51785" lon="3.19475">
        <ele>495</ele>
        <time>2012-11-13T13:40:39Z</time>
      </trkpt>
      <trkpt lat="45.51803" lon="3.19461">
        <ele>496</ele>
        <time>2012-11-13T13:40:43Z</time>
      </trkpt>
      <trkpt lat="45.5182" lon="3.19442">
        <ele>496</ele>
        <time>2012-11-13T13:40:48Z</time>
      </trkpt>
      <trkpt lat="45.51839" lon="3.19425">
        <ele>498</ele>
        <time>2012-11-13T13:40:53Z</time>
      </trkpt>
      <trkpt lat="45.51857" lon="3.19411">
        <ele>498</ele>
        <time>2012-11-13T13:40:58Z</time>
      </trkpt>
      <trkpt lat="45.51874" lon="3.19395">
        <ele>498</ele>
        <time>2012-11-13T13:41:03Z</time>
      </trkpt>
      <trkpt lat="45.51892" lon="3.1938">
        <ele>499</ele>
        <time>2012-11-13T13:41:08Z</time>
      </trkpt>
      <trkpt lat="45.5191" lon="3.19365">
        <ele>499</ele>
        <time>2012-11-13T13:41:13Z</time>
      </trkpt>
      <trkpt lat="45.51929" lon="3.1935">
        <ele>500</ele>
        <time>2012-11-13T13:41:18Z</time>
      </trkpt>
      <trkpt lat="45.51947" lon="3.19334">
        <ele>501</ele>
        <time>2012-11-13T13:41:23Z</time>
      </trkpt>
      <trkpt lat="45.51963" lon="3.19317">
        <ele>502</ele>
        <time>2012-11-13T13:41:28Z</time>
      </trkpt>
      <trkpt lat="45.51981" lon="3.19302">
        <ele>502</ele>
        <time>2012-11-13T13:41:33Z</time>
      </trkpt>
      <trkpt lat="45.51998" lon="3.19289">
        <ele>502</ele>
        <time>2012-11-13T13:41:38Z</time>
      </trkpt>
      <trkpt lat="45.52015" lon="3.19272">
        <ele>505</ele>
        <time>2012-11-13T13:41:43Z</time>
      </trkpt>
      <trkpt lat="45.52031" lon="3.19257">
        <ele>506</ele>
        <time>2012-11-13T13:41:48Z</time>
      </trkpt>
      <trkpt lat="45.52049" lon="3.19241">
        <ele>507</ele>
        <time>2012-11-13T13:41:54Z</time>
      </trkpt>
      <trkpt lat="45.52067" lon="3.19227">
        <ele>507</ele>
        <time>2012-11-13T13:42:00Z</time>
      </trkpt>
      <trkpt lat="45.52084" lon="3.19212">
        <ele>510</ele>
        <time>2012-11-13T13:42:05Z</time>
      </trkpt>
      <trkpt lat="45.52102" lon="3.19201">
        <ele>511</ele>
        <time>2012-11-13T13:42:10Z</time>
      </trkpt>
      <trkpt lat="45.52121" lon="3.1919">
        <ele>511</ele>
        <time>2012-11-13T13:42:15Z</time>
      </trkpt>
      <trkpt lat="45.52138" lon="3.19177">
        <ele>512</ele>
        <time>2012-11-13T13:42:20Z</time>
      </trkpt>
      <trkpt lat="45.52154" lon="3.19165">
        <ele>513</ele>
        <time>2012-11-13T13:42:25Z</time>
      </trkpt>
      <trkpt lat="45.5217" lon="3.19151">
        <ele>514</ele>
        <time>2012-11-13T13:42:33Z</time>
      </trkpt>
      <trkpt lat="45.52186" lon="3.19135">
        <ele>516</ele>
        <time>2012-11-13T13:42:43Z</time>
      </trkpt>
      <trkpt lat="45.522" lon="3.19115">
        <ele>516</ele>
        <time>2012-11-13T13:42:50Z</time>
      </trkpt>
      <trkpt lat="45.52219" lon="3.19101">
        <ele>517</ele>
        <time>2012-11-13T13:42:57Z</time>
      </trkpt>
      <trkpt lat="45.52235" lon="3.19088">
        <ele>518</ele>
        <time>2012-11-13T13:43:03Z</time>
      </trkpt>
      <trkpt lat="45.52252" lon="3.19078">
        <ele>520</ele>
        <time>2012-11-13T13:43:09Z</time>
      </trkpt>
      <trkpt lat="45.52269" lon="3.19063">
        <ele>522</ele>
        <time>2012-11-13T13:43:15Z</time>
      </trkpt>
      <trkpt lat="45.5228" lon="3.19039">
        <ele>523</ele>
        <time>2012-11-13T13:43:21Z</time>
      </trkpt>
      <trkpt lat="45.52289" lon="3.19017">
        <ele>524</ele>
        <time>2012-11-13T13:43:28Z</time>
      </trkpt>
      <trkpt lat="45.52298" lon="3.18992">
        <ele>527</ele>
        <time>2012-11-13T13:43:36Z</time>
      </trkpt>
      <trkpt lat="45.52305" lon="3.18967">
        <ele>528</ele>
        <time>2012-11-13T13:43:44Z</time>
      </trkpt>
      <trkpt lat="45.52314" lon="3.18944">
        <ele>529</ele>
        <time>2012-11-13T13:43:55Z</time>
      </trkpt>
      <trkpt lat="45.52328" lon="3.18927">
        <ele>531</ele>
        <time>2012-11-13T13:44:06Z</time>
      </trkpt>
      <trkpt lat="45.52346" lon="3.18919">
        <ele>534</ele>
        <time>2012-11-13T13:44:17Z</time>
      </trkpt>
      <trkpt lat="45.52363" lon="3.18909">
        <ele>539</ele>
        <time>2012-11-13T13:44:27Z</time>
      </trkpt>
      <trkpt lat="45.52381" lon="3.189">
        <ele>540</ele>
        <time>2012-11-13T13:44:37Z</time>
      </trkpt>
      <trkpt lat="45.524" lon="3.18892">
        <ele>541</ele>
        <time>2012-11-13T13:44:47Z</time>
      </trkpt>
      <trkpt lat="45.5242" lon="3.18884">
        <ele>545</ele>
        <time>2012-11-13T13:44:55Z</time>
      </trkpt>
      <trkpt lat="45.52438" lon="3.1888">
        <ele>546</ele>
        <time>2012-11-13T13:45:02Z</time>
      </trkpt>
      <trkpt lat="45.52456" lon="3.18871">
        <ele>547</ele>
        <time>2012-11-13T13:45:10Z</time>
      </trkpt>
      <trkpt lat="45.52475" lon="3.18859">
        <ele>548</ele>
        <time>2012-11-13T13:45:18Z</time>
      </trkpt>
      <trkpt lat="45.52493" lon="3.18847">
        <ele>549</ele>
        <time>2012-11-13T13:45:25Z</time>
      </trkpt>
      <trkpt lat="45.5251" lon="3.18835">
        <ele>551</ele>
        <time>2012-11-13T13:45:33Z</time>
      </trkpt>
      <trkpt lat="45.52528" lon="3.18824">
        <ele>555</ele>
        <time>2012-11-13T13:45:41Z</time>
      </trkpt>
      <trkpt lat="45.52546" lon="3.18822">
        <ele>555</ele>
        <time>2012-11-13T13:45:48Z</time>
      </trkpt>
      <trkpt lat="45.52565" lon="3.18817">
        <ele>556</ele>
        <time>2012-11-13T13:45:55Z</time>
      </trkpt>
      <trkpt lat="45.52583" lon="3.1881">
        <ele>556</ele>
        <time>2012-11-13T13:46:02Z</time>
      </trkpt>
      <trkpt lat="45.526" lon="3.18801">
        <ele>558</ele>
        <time>2012-11-13T13:46:11Z</time>
      </trkpt>
      <trkpt lat="45.52618" lon="3.18795">
        <ele>559</ele>
        <time>2012-11-13T13:46:29Z</time>
      </trkpt>
      <trkpt lat="45.52628" lon="3.18772">
        <ele>560</ele>
        <time>2012-11-13T13:46:37Z</time>
      </trkpt>
      <trkpt lat="45.52636" lon="3.18749">
        <ele>562</ele>
        <time>2012-11-13T13:46:44Z</time>
      </trkpt>
      <trkpt lat="45.52644" lon="3.18723">
        <ele>562</ele>
        <time>2012-11-13T13:46:52Z</time>
      </trkpt>
      <trkpt lat="45.52656" lon="3.18701">
        <ele>562</ele>
        <time>2012-11-13T13:46:59Z</time>
      </trkpt>
      <trkpt lat="45.52669" lon="3.18681">
        <ele>564</ele>
        <time>2012-11-13T13:47:05Z</time>
      </trkpt>
      <trkpt lat="45.52682" lon="3.18658">
        <ele>564</ele>
        <time>2012-11-13T13:47:11Z</time>
      </trkpt>
      <trkpt lat="45.52694" lon="3.18637">
        <ele>565</ele>
        <time>2012-11-13T13:47:16Z</time>
      </trkpt>
      <trkpt lat="45.5271" lon="3.18617">
        <ele>565</ele>
        <time>2012-11-13T13:47:21Z</time>
      </trkpt>
      <trkpt lat="45.52722" lon="3.18597">
        <ele>564</ele>
        <time>2012-11-13T13:47:25Z</time>
      </trkpt>
      <trkpt lat="45.52737" lon="3.18575">
        <ele>564</ele>
        <time>2012-11-13T13:47:29Z</time>
      </trkpt>
      <trkpt lat="45.52748" lon="3.18554">
        <ele>564</ele>
        <time>2012-11-13T13:47:32Z</time>
      </trkpt>
      <trkpt lat="45.5276" lon="3.18532">
        <ele>563</ele>
        <time>2012-11-13T13:47:35Z</time>
      </trkpt>
      <trkpt lat="45.52775" lon="3.18508">
        <ele>563</ele>
        <time>2012-11-13T13:47:39Z</time>
      </trkpt>
      <trkpt lat="45.52789" lon="3.18482">
        <ele>563</ele>
        <time>2012-11-13T13:47:43Z</time>
      </trkpt>
      <trkpt lat="45.52802" lon="3.18464">
        <ele>563</ele>
        <time>2012-11-13T13:47:46Z</time>
      </trkpt>
      <trkpt lat="45.52817" lon="3.18442">
        <ele>563</ele>
        <time>2012-11-13T13:47:50Z</time>
      </trkpt>
      <trkpt lat="45.52831" lon="3.18421">
        <ele>562</ele>
        <time>2012-11-13T13:47:54Z</time>
      </trkpt>
      <trkpt lat="45.52846" lon="3.18398">
        <ele>563</ele>
        <time>2012-11-13T13:47:58Z</time>
      </trkpt>
      <trkpt lat="45.5286" lon="3.18373">
        <ele>563</ele>
        <time>2012-11-13T13:48:02Z</time>
      </trkpt>
      <trkpt lat="45.52874" lon="3.1835">
        <ele>564</ele>
        <time>2012-11-13T13:48:06Z</time>
      </trkpt>
      <trkpt lat="45.52889" lon="3.18328">
        <ele>564</ele>
        <time>2012-11-13T13:48:10Z</time>
      </trkpt>
      <trkpt lat="45.52899" lon="3.18306">
        <ele>564</ele>
        <time>2012-11-13T13:48:13Z</time>
      </trkpt>
      <trkpt lat="45.52912" lon="3.18286">
        <ele>564</ele>
        <time>2012-11-13T13:48:17Z</time>
      </trkpt>
      <trkpt lat="45.52927" lon="3.18265">
        <ele>562</ele>
        <time>2012-11-13T13:48:21Z</time>
      </trkpt>
      <trkpt lat="45.52942" lon="3.18244">
        <ele>560</ele>
        <time>2012-11-13T13:48:25Z</time>
      </trkpt>
      <trkpt lat="45.52961" lon="3.18229">
        <ele>559</ele>
        <time>2012-11-13T13:48:29Z</time>
      </trkpt>
      <trkpt lat="45.5298" lon="3.18216">
        <ele>558</ele>
        <time>2012-11-13T13:48:32Z</time>
      </trkpt>
      <trkpt lat="45.53002" lon="3.18201">
        <ele>554</ele>
        <time>2012-11-13T13:48:35Z</time>
      </trkpt>
      <trkpt lat="45.53025" lon="3.18187">
        <ele>553</ele>
        <time>2012-11-13T13:48:38Z</time>
      </trkpt>
      <trkpt lat="45.5305" lon="3.18175">
        <ele>552</ele>
        <time>2012-11-13T13:48:40Z</time>
      </trkpt>
      <trkpt lat="45.53077" lon="3.18167">
        <ele>548</ele>
        <time>2012-11-13T13:48:44Z</time>
      </trkpt>
      <trkpt lat="45.53102" lon="3.18159">
        <ele>544</ele>
        <time>2012-11-13T13:48:47Z</time>
      </trkpt>
      <trkpt lat="45.53119" lon="3.18151">
        <ele>543</ele>
        <time>2012-11-13T13:48:49Z</time>
      </trkpt>
      <trkpt lat="45.53137" lon="3.18145">
        <ele>542</ele>
        <time>2012-11-13T13:48:51Z</time>
      </trkpt>
      <trkpt lat="45.53157" lon="3.1814">
        <ele>542</ele>
        <time>2012-11-13T13:48:52Z</time>
      </trkpt>
      <trkpt lat="45.53177" lon="3.18135">
        <ele>540</ele>
        <time>2012-11-13T13:48:55Z</time>
      </trkpt>
      <trkpt lat="45.53196" lon="3.18128">
        <ele>539</ele>
        <time>2012-11-13T13:48:57Z</time>
      </trkpt>
      <trkpt lat="45.53215" lon="3.18119">
        <ele>539</ele>
        <time>2012-11-13T13:48:59Z</time>
      </trkpt>
      <trkpt lat="45.53233" lon="3.18111">
        <ele>538</ele>
        <time>2012-11-13T13:49:01Z</time>
      </trkpt>
      <trkpt lat="45.53249" lon="3.18099">
        <ele>535</ele>
        <time>2012-11-13T13:49:03Z</time>
      </trkpt>
      <trkpt lat="45.53267" lon="3.18089">
        <ele>536</ele>
        <time>2012-11-13T13:49:05Z</time>
      </trkpt>
      <trkpt lat="45.53292" lon="3.18079">
        <ele>528</ele>
        <time>2012-11-13T13:49:08Z</time>
      </trkpt>
      <trkpt lat="45.53315" lon="3.1807">
        <ele>528</ele>
        <time>2012-11-13T13:49:11Z</time>
      </trkpt>
      <trkpt lat="45.53337" lon="3.18059">
        <ele>525</ele>
        <time>2012-11-13T13:49:14Z</time>
      </trkpt>
      <trkpt lat="45.53361" lon="3.18044">
        <ele>523</ele>
        <time>2012-11-13T13:49:17Z</time>
      </trkpt>
      <trkpt lat="45.53381" lon="3.18026">
        <ele>522</ele>
        <time>2012-11-13T13:49:20Z</time>
      </trkpt>
      <trkpt lat="45.53402" lon="3.18007">
        <ele>518</ele>
        <time>2012-11-13T13:49:23Z</time>
      </trkpt>
      <trkpt lat="45.53426" lon="3.17992">
        <ele>512</ele>
        <time>2012-11-13T13:49:26Z</time>
      </trkpt>
      <trkpt lat="45.53444" lon="3.17984">
        <ele>510</ele>
        <time>2012-11-13T13:49:27Z</time>
      </trkpt>
      <trkpt lat="45.53468" lon="3.17966">
        <ele>509</ele>
        <time>2012-11-13T13:49:31Z</time>
      </trkpt>
      <trkpt lat="45.53485" lon="3.17955">
        <ele>508</ele>
        <time>2012-11-13T13:49:33Z</time>
      </trkpt>
      <trkpt lat="45.53509" lon="3.17949">
        <ele>504</ele>
        <time>2012-11-13T13:49:35Z</time>
      </trkpt>
      <trkpt lat="45.53533" lon="3.17953">
        <ele>503</ele>
        <time>2012-11-13T13:49:39Z</time>
      </trkpt>
      <trkpt lat="45.53558" lon="3.17958">
        <ele>502</ele>
        <time>2012-11-13T13:49:42Z</time>
      </trkpt>
      <trkpt lat="45.53581" lon="3.17966">
        <ele>503</ele>
        <time>2012-11-13T13:49:45Z</time>
      </trkpt>
      <trkpt lat="45.53603" lon="3.1797">
        <ele>499</ele>
        <time>2012-11-13T13:49:48Z</time>
      </trkpt>
      <trkpt lat="45.53627" lon="3.1797">
        <ele>498</ele>
        <time>2012-11-13T13:49:51Z</time>
      </trkpt>
      <trkpt lat="45.53652" lon="3.17971">
        <ele>498</ele>
        <time>2012-11-13T13:49:54Z</time>
      </trkpt>
      <trkpt lat="45.53678" lon="3.17974">
        <ele>494</ele>
        <time>2012-11-13T13:49:57Z</time>
      </trkpt>
      <trkpt lat="45.53704" lon="3.17974">
        <ele>492</ele>
        <time>2012-11-13T13:50:00Z</time>
      </trkpt>
      <trkpt lat="45.53729" lon="3.17972">
        <ele>491</ele>
        <time>2012-11-13T13:50:03Z</time>
      </trkpt>
      <trkpt lat="45.53755" lon="3.17968">
        <ele>487</ele>
        <time>2012-11-13T13:50:06Z</time>
      </trkpt>
      <trkpt lat="45.5378" lon="3.17968">
        <ele>486</ele>
        <time>2012-11-13T13:50:09Z</time>
      </trkpt>
      <trkpt lat="45.53798" lon="3.1797">
        <ele>485</ele>
        <time>2012-11-13T13:50:11Z</time>
      </trkpt>
      <trkpt lat="45.53817" lon="3.17975">
        <ele>485</ele>
        <time>2012-11-13T13:50:13Z</time>
      </trkpt>
      <trkpt lat="45.53836" lon="3.17979">
        <ele>482</ele>
        <time>2012-11-13T13:50:15Z</time>
      </trkpt>
      <trkpt lat="45.53861" lon="3.1798">
        <ele>481</ele>
        <time>2012-11-13T13:50:18Z</time>
      </trkpt>
      <trkpt lat="45.53884" lon="3.17968">
        <ele>479</ele>
        <time>2012-11-13T13:50:21Z</time>
      </trkpt>
      <trkpt lat="45.53905" lon="3.17956">
        <ele>478</ele>
        <time>2012-11-13T13:50:24Z</time>
      </trkpt>
      <trkpt lat="45.53928" lon="3.17949">
        <ele>474</ele>
        <time>2012-11-13T13:50:26Z</time>
      </trkpt>
      <trkpt lat="45.53951" lon="3.17951">
        <ele>473</ele>
        <time>2012-11-13T13:50:30Z</time>
      </trkpt>
      <trkpt lat="45.53976" lon="3.17957">
        <ele>472</ele>
        <time>2012-11-13T13:50:33Z</time>
      </trkpt>
      <trkpt lat="45.54001" lon="3.17967">
        <ele>467</ele>
        <time>2012-11-13T13:50:36Z</time>
      </trkpt>
      <trkpt lat="45.54019" lon="3.17975">
        <ele>467</ele>
        <time>2012-11-13T13:50:38Z</time>
      </trkpt>
      <trkpt lat="45.54037" lon="3.17981">
        <ele>466</ele>
        <time>2012-11-13T13:50:40Z</time>
      </trkpt>
      <trkpt lat="45.54062" lon="3.17987">
        <ele>464</ele>
        <time>2012-11-13T13:50:43Z</time>
      </trkpt>
      <trkpt lat="45.54086" lon="3.17992">
        <ele>461</ele>
        <time>2012-11-13T13:50:46Z</time>
      </trkpt>
      <trkpt lat="45.54108" lon="3.17999">
        <ele>460</ele>
        <time>2012-11-13T13:50:49Z</time>
      </trkpt>
      <trkpt lat="45.54127" lon="3.18016">
        <ele>463</ele>
        <time>2012-11-13T13:50:52Z</time>
      </trkpt>
      <trkpt lat="45.54149" lon="3.18036">
        <ele>463</ele>
        <time>2012-11-13T13:50:55Z</time>
      </trkpt>
      <trkpt lat="45.5417" lon="3.18055">
        <ele>458</ele>
        <time>2012-11-13T13:50:58Z</time>
      </trkpt>
      <trkpt lat="45.54193" lon="3.18076">
        <ele>458</ele>
        <time>2012-11-13T13:51:01Z</time>
      </trkpt>
      <trkpt lat="45.54216" lon="3.18091">
        <ele>461</ele>
        <time>2012-11-13T13:51:04Z</time>
      </trkpt>
      <trkpt lat="45.5424" lon="3.18105">
        <ele>459</ele>
        <time>2012-11-13T13:51:07Z</time>
      </trkpt>
      <trkpt lat="45.54257" lon="3.18114">
        <ele>453</ele>
        <time>2012-11-13T13:51:09Z</time>
      </trkpt>
      <trkpt lat="45.54275" lon="3.18124">
        <ele>454</ele>
        <time>2012-11-13T13:51:11Z</time>
      </trkpt>
      <trkpt lat="45.54292" lon="3.18134">
        <ele>454</ele>
        <time>2012-11-13T13:51:13Z</time>
      </trkpt>
      <trkpt lat="45.54314" lon="3.18145">
        <ele>453</ele>
        <time>2012-11-13T13:51:16Z</time>
      </trkpt>
      <trkpt lat="45.54339" lon="3.18147">
        <ele>449</ele>
        <time>2012-11-13T13:51:19Z</time>
      </trkpt>
      <trkpt lat="45.54364" lon="3.18143">
        <ele>448</ele>
        <time>2012-11-13T13:51:22Z</time>
      </trkpt>
      <trkpt lat="45.54389" lon="3.18136">
        <ele>448</ele>
        <time>2012-11-13T13:51:25Z</time>
      </trkpt>
      <trkpt lat="45.54411" lon="3.1813">
        <ele>447</ele>
        <time>2012-11-13T13:51:27Z</time>
      </trkpt>
      <trkpt lat="45.54433" lon="3.18125">
        <ele>444</ele>
        <time>2012-11-13T13:51:31Z</time>
      </trkpt>
      <trkpt lat="45.54452" lon="3.18109">
        <ele>443</ele>
        <time>2012-11-13T13:51:35Z</time>
      </trkpt>
      <trkpt lat="45.54466" lon="3.18088">
        <ele>443</ele>
        <time>2012-11-13T13:51:39Z</time>
      </trkpt>
      <trkpt lat="45.54478" lon="3.18064">
        <ele>443</ele>
        <time>2012-11-13T13:51:43Z</time>
      </trkpt>
      <trkpt lat="45.54482" lon="3.18033">
        <ele>444</ele>
        <time>2012-11-13T13:51:47Z</time>
      </trkpt>
      <trkpt lat="45.54489" lon="3.18002">
        <ele>442</ele>
        <time>2012-11-13T13:51:51Z</time>
      </trkpt>
      <trkpt lat="45.5451" lon="3.17993">
        <ele>440</ele>
        <time>2012-11-13T13:51:56Z</time>
      </trkpt>
      <trkpt lat="45.54526" lon="3.17977">
        <ele>439</ele>
        <time>2012-11-13T13:52:00Z</time>
      </trkpt>
      <trkpt lat="45.54532" lon="3.17945">
        <ele>438</ele>
        <time>2012-11-13T13:52:04Z</time>
      </trkpt>
      <trkpt lat="45.54534" lon="3.1791">
        <ele>437</ele>
        <time>2012-11-13T13:52:08Z</time>
      </trkpt>
      <trkpt lat="45.54534" lon="3.17881">
        <ele>436</ele>
        <time>2012-11-13T13:52:11Z</time>
      </trkpt>
      <trkpt lat="45.54535" lon="3.1785">
        <ele>436</ele>
        <time>2012-11-13T13:52:14Z</time>
      </trkpt>
      <trkpt lat="45.54536" lon="3.17817">
        <ele>435</ele>
        <time>2012-11-13T13:52:17Z</time>
      </trkpt>
      <trkpt lat="45.54537" lon="3.17785">
        <ele>435</ele>
        <time>2012-11-13T13:52:20Z</time>
      </trkpt>
      <trkpt lat="45.54538" lon="3.17753">
        <ele>435</ele>
        <time>2012-11-13T13:52:23Z</time>
      </trkpt>
      <trkpt lat="45.5454" lon="3.17721">
        <ele>435</ele>
        <time>2012-11-13T13:52:26Z</time>
      </trkpt>
      <trkpt lat="45.54537" lon="3.17688">
        <ele>435</ele>
        <time>2012-11-13T13:52:29Z</time>
      </trkpt>
      <trkpt lat="45.54528" lon="3.17659">
        <ele>436</ele>
        <time>2012-11-13T13:52:32Z</time>
      </trkpt>
      <trkpt lat="45.54517" lon="3.17632">
        <ele>436</ele>
        <time>2012-11-13T13:52:35Z</time>
      </trkpt>
      <trkpt lat="45.54508" lon="3.17606">
        <ele>437</ele>
        <time>2012-11-13T13:52:37Z</time>
      </trkpt>
      <trkpt lat="45.545" lon="3.17578">
        <ele>438</ele>
        <time>2012-11-13T13:52:41Z</time>
      </trkpt>
      <trkpt lat="45.54494" lon="3.17553">
        <ele>438</ele>
        <time>2012-11-13T13:52:44Z</time>
      </trkpt>
      <trkpt lat="45.5449" lon="3.17525">
        <ele>438</ele>
        <time>2012-11-13T13:52:47Z</time>
      </trkpt>
      <trkpt lat="45.54483" lon="3.17498">
        <ele>438</ele>
        <time>2012-11-13T13:52:50Z</time>
      </trkpt>
      <trkpt lat="45.54476" lon="3.17471">
        <ele>438</ele>
        <time>2012-11-13T13:52:53Z</time>
      </trkpt>
      <trkpt lat="45.5447" lon="3.17445">
        <ele>438</ele>
        <time>2012-11-13T13:52:56Z</time>
      </trkpt>
      <trkpt lat="45.54465" lon="3.17419">
        <ele>438</ele>
        <time>2012-11-13T13:52:58Z</time>
      </trkpt>
      <trkpt lat="45.54459" lon="3.17393">
        <ele>438</ele>
        <time>2012-11-13T13:53:02Z</time>
      </trkpt>
      <trkpt lat="45.54453" lon="3.17366">
        <ele>438</ele>
        <time>2012-11-13T13:53:05Z</time>
      </trkpt>
      <trkpt lat="45.54447" lon="3.17339">
        <ele>438</ele>
        <time>2012-11-13T13:53:07Z</time>
      </trkpt>
      <trkpt lat="45.54441" lon="3.17313">
        <ele>438</ele>
        <time>2012-11-13T13:53:11Z</time>
      </trkpt>
      <trkpt lat="45.54434" lon="3.17289">
        <ele>438</ele>
        <time>2012-11-13T13:53:14Z</time>
      </trkpt>
      <trkpt lat="45.54427" lon="3.17263">
        <ele>439</ele>
        <time>2012-11-13T13:53:16Z</time>
      </trkpt>
      <trkpt lat="45.54416" lon="3.17232">
        <ele>441</ele>
        <time>2012-11-13T13:53:21Z</time>
      </trkpt>
      <trkpt lat="45.54407" lon="3.17209">
        <ele>442</ele>
        <time>2012-11-13T13:53:24Z</time>
      </trkpt>
      <trkpt lat="45.54398" lon="3.17186">
        <ele>442</ele>
        <time>2012-11-13T13:53:27Z</time>
      </trkpt>
      <trkpt lat="45.54387" lon="3.17157">
        <ele>442</ele>
        <time>2012-11-13T13:53:31Z</time>
      </trkpt>
      <trkpt lat="45.54383" lon="3.17131">
        <ele>443</ele>
        <time>2012-11-13T13:53:34Z</time>
      </trkpt>
      <trkpt lat="45.5438" lon="3.17099">
        <ele>443</ele>
        <time>2012-11-13T13:53:38Z</time>
      </trkpt>
      <trkpt lat="45.54382" lon="3.17067">
        <ele>444</ele>
        <time>2012-11-13T13:53:42Z</time>
      </trkpt>
      <trkpt lat="45.54382" lon="3.17036">
        <ele>445</ele>
        <time>2012-11-13T13:53:46Z</time>
      </trkpt>
      <trkpt lat="45.54382" lon="3.17005">
        <ele>445</ele>
        <time>2012-11-13T13:53:50Z</time>
      </trkpt>
      <trkpt lat="45.54384" lon="3.16973">
        <ele>445</ele>
        <time>2012-11-13T13:53:54Z</time>
      </trkpt>
      <trkpt lat="45.54383" lon="3.1694">
        <ele>445</ele>
        <time>2012-11-13T13:53:57Z</time>
      </trkpt>
      <trkpt lat="45.54386" lon="3.16908">
        <ele>445</ele>
        <time>2012-11-13T13:54:02Z</time>
      </trkpt>
      <trkpt lat="45.54388" lon="3.16876">
        <ele>445</ele>
        <time>2012-11-13T13:54:06Z</time>
      </trkpt>
      <trkpt lat="45.5439" lon="3.16843">
        <ele>445</ele>
        <time>2012-11-13T13:54:10Z</time>
      </trkpt>
      <trkpt lat="45.5439" lon="3.16811">
        <ele>445</ele>
        <time>2012-11-13T13:54:14Z</time>
      </trkpt>
      <trkpt lat="45.54391" lon="3.16785">
        <ele>445</ele>
        <time>2012-11-13T13:54:17Z</time>
      </trkpt>
      <trkpt lat="45.54392" lon="3.16758">
        <ele>444</ele>
        <time>2012-11-13T13:54:20Z</time>
      </trkpt>
      <trkpt lat="45.54394" lon="3.16731">
        <ele>444</ele>
        <time>2012-11-13T13:54:23Z</time>
      </trkpt>
      <trkpt lat="45.54396" lon="3.16705">
        <ele>444</ele>
        <time>2012-11-13T13:54:26Z</time>
      </trkpt>
      <trkpt lat="45.54398" lon="3.16678">
        <ele>444</ele>
        <time>2012-11-13T13:54:29Z</time>
      </trkpt>
      <trkpt lat="45.54401" lon="3.16645">
        <ele>444</ele>
        <time>2012-11-13T13:54:33Z</time>
      </trkpt>
      <trkpt lat="45.54405" lon="3.16611">
        <ele>444</ele>
        <time>2012-11-13T13:54:37Z</time>
      </trkpt>
      <trkpt lat="45.54407" lon="3.16585">
        <ele>444</ele>
        <time>2012-11-13T13:54:40Z</time>
      </trkpt>
      <trkpt lat="45.5441" lon="3.16552">
        <ele>445</ele>
        <time>2012-11-13T13:54:44Z</time>
      </trkpt>
      <trkpt lat="45.54413" lon="3.16518">
        <ele>445</ele>
        <time>2012-11-13T13:54:48Z</time>
      </trkpt>
      <trkpt lat="45.54414" lon="3.16492">
        <ele>445</ele>
        <time>2012-11-13T13:54:51Z</time>
      </trkpt>
      <trkpt lat="45.54415" lon="3.16467">
        <ele>447</ele>
        <time>2012-11-13T13:54:54Z</time>
      </trkpt>
      <trkpt lat="45.54416" lon="3.16441">
        <ele>447</ele>
        <time>2012-11-13T13:54:57Z</time>
      </trkpt>
      <trkpt lat="45.54417" lon="3.16409">
        <ele>446</ele>
        <time>2012-11-13T13:55:01Z</time>
      </trkpt>
      <trkpt lat="45.5442" lon="3.16378">
        <ele>446</ele>
        <time>2012-11-13T13:55:05Z</time>
      </trkpt>
      <trkpt lat="45.54424" lon="3.16347">
        <ele>446</ele>
        <time>2012-11-13T13:55:09Z</time>
      </trkpt>
      <trkpt lat="45.54426" lon="3.16315">
        <ele>446</ele>
        <time>2012-11-13T13:55:13Z</time>
      </trkpt>
      <trkpt lat="45.54427" lon="3.16283">
        <ele>446</ele>
        <time>2012-11-13T13:55:17Z</time>
      </trkpt>
      <trkpt lat="45.5443" lon="3.16256">
        <ele>447</ele>
        <time>2012-11-13T13:55:21Z</time>
      </trkpt>
      <trkpt lat="45.54435" lon="3.1623">
        <ele>447</ele>
        <time>2012-11-13T13:55:25Z</time>
      </trkpt>
      <trkpt lat="45.54437" lon="3.162">
        <ele>447</ele>
        <time>2012-11-13T13:55:29Z</time>
      </trkpt>
      <trkpt lat="45.54438" lon="3.16169">
        <ele>447</ele>
        <time>2012-11-13T13:55:33Z</time>
      </trkpt>
      <trkpt lat="45.54438" lon="3.16135">
        <ele>448</ele>
        <time>2012-11-13T13:55:37Z</time>
      </trkpt>
      <trkpt lat="45.54439" lon="3.16102">
        <ele>448</ele>
        <time>2012-11-13T13:55:41Z</time>
      </trkpt>
      <trkpt lat="45.54454" lon="3.16078">
        <ele>449</ele>
        <time>2012-11-13T13:55:46Z</time>
      </trkpt>
      <trkpt lat="45.54473" lon="3.16093">
        <ele>448</ele>
        <time>2012-11-13T13:55:50Z</time>
      </trkpt>
      <trkpt lat="45.54493" lon="3.1611">
        <ele>448</ele>
        <time>2012-11-13T13:55:54Z</time>
      </trkpt>
      <trkpt lat="45.54514" lon="3.16126">
        <ele>449</ele>
        <time>2012-11-13T13:55:58Z</time>
      </trkpt>
      <trkpt lat="45.54534" lon="3.16143">
        <ele>449</ele>
        <time>2012-11-13T13:56:01Z</time>
      </trkpt>
      <trkpt lat="45.54556" lon="3.16155">
        <ele>449</ele>
        <time>2012-11-13T13:56:06Z</time>
      </trkpt>
      <trkpt lat="45.54572" lon="3.16167">
        <ele>449</ele>
        <time>2012-11-13T13:56:09Z</time>
      </trkpt>
      <trkpt lat="45.54591" lon="3.16183">
        <ele>449</ele>
        <time>2012-11-13T13:56:13Z</time>
      </trkpt>
      <trkpt lat="45.54609" lon="3.16195">
        <ele>448</ele>
        <time>2012-11-13T13:56:17Z</time>
      </trkpt>
      <trkpt lat="45.54631" lon="3.16202">
        <ele>448</ele>
        <time>2012-11-13T13:56:21Z</time>
      </trkpt>
      <trkpt lat="45.5465" lon="3.16209">
        <ele>448</ele>
        <time>2012-11-13T13:56:24Z</time>
      </trkpt>
      <trkpt lat="45.54669" lon="3.16219">
        <ele>447</ele>
        <time>2012-11-13T13:56:27Z</time>
      </trkpt>
      <trkpt lat="45.54687" lon="3.16208">
        <ele>447</ele>
        <time>2012-11-13T13:56:31Z</time>
      </trkpt>
      <trkpt lat="45.5469" lon="3.16182">
        <ele>447</ele>
        <time>2012-11-13T13:56:37Z</time>
      </trkpt>
      <trkpt lat="45.54695" lon="3.16154">
        <ele>447</ele>
        <time>2012-11-13T13:56:41Z</time>
      </trkpt>
      <trkpt lat="45.54705" lon="3.16129">
        <ele>447</ele>
        <time>2012-11-13T13:56:45Z</time>
      </trkpt>
      <trkpt lat="45.54712" lon="3.16101">
        <ele>448</ele>
        <time>2012-11-13T13:56:49Z</time>
      </trkpt>
      <trkpt lat="45.54719" lon="3.16074">
        <ele>448</ele>
        <time>2012-11-13T13:56:53Z</time>
      </trkpt>
      <trkpt lat="45.54726" lon="3.16048">
        <ele>448</ele>
        <time>2012-11-13T13:56:57Z</time>
      </trkpt>
      <trkpt lat="45.54716" lon="3.1602">
        <ele>448</ele>
        <time>2012-11-13T13:57:01Z</time>
      </trkpt>
      <trkpt lat="45.54698" lon="3.16008">
        <ele>448</ele>
        <time>2012-11-13T13:57:05Z</time>
      </trkpt>
      <trkpt lat="45.54682" lon="3.15989">
        <ele>448</ele>
        <time>2012-11-13T13:57:09Z</time>
      </trkpt>
      <trkpt lat="45.54682" lon="3.15961">
        <ele>449</ele>
        <time>2012-11-13T13:57:13Z</time>
      </trkpt>
      <trkpt lat="45.54687" lon="3.15934">
        <ele>449</ele>
        <time>2012-11-13T13:57:17Z</time>
      </trkpt>
      <trkpt lat="45.54692" lon="3.15903">
        <ele>449</ele>
        <time>2012-11-13T13:57:21Z</time>
      </trkpt>
      <trkpt lat="45.54696" lon="3.15872">
        <ele>449</ele>
        <time>2012-11-13T13:57:25Z</time>
      </trkpt>
      <trkpt lat="45.54701" lon="3.15844">
        <ele>450</ele>
        <time>2012-11-13T13:57:29Z</time>
      </trkpt>
      <trkpt lat="45.54709" lon="3.15814">
        <ele>450</ele>
        <time>2012-11-13T13:57:33Z</time>
      </trkpt>
      <trkpt lat="45.54713" lon="3.15785">
        <ele>450</ele>
        <time>2012-11-13T13:57:37Z</time>
      </trkpt>
      <trkpt lat="45.5472" lon="3.15753">
        <ele>451</ele>
        <time>2012-11-13T13:57:41Z</time>
      </trkpt>
      <trkpt lat="45.54726" lon="3.15724">
        <ele>451</ele>
        <time>2012-11-13T13:57:45Z</time>
      </trkpt>
      <trkpt lat="45.54731" lon="3.15695">
        <ele>452</ele>
        <time>2012-11-13T13:57:49Z</time>
      </trkpt>
      <trkpt lat="45.54736" lon="3.15666">
        <ele>452</ele>
        <time>2012-11-13T13:57:53Z</time>
      </trkpt>
      <trkpt lat="45.54742" lon="3.1564">
        <ele>452</ele>
        <time>2012-11-13T13:57:57Z</time>
      </trkpt>
      <trkpt lat="45.54749" lon="3.15614">
        <ele>452</ele>
        <time>2012-11-13T13:58:01Z</time>
      </trkpt>
      <trkpt lat="45.54756" lon="3.15583">
        <ele>452</ele>
        <time>2012-11-13T13:58:06Z</time>
      </trkpt>
      <trkpt lat="45.5476" lon="3.15557">
        <ele>451</ele>
        <time>2012-11-13T13:58:10Z</time>
      </trkpt>
      <trkpt lat="45.54766" lon="3.15526">
        <ele>450</ele>
        <time>2012-11-13T13:58:14Z</time>
      </trkpt>
      <trkpt lat="45.54773" lon="3.15496">
        <ele>450</ele>
        <time>2012-11-13T13:58:18Z</time>
      </trkpt>
      <trkpt lat="45.54779" lon="3.15464">
        <ele>450</ele>
        <time>2012-11-13T13:58:22Z</time>
      </trkpt>
      <trkpt lat="45.54786" lon="3.15434">
        <ele>451</ele>
        <time>2012-11-13T13:58:26Z</time>
      </trkpt>
      <trkpt lat="45.54793" lon="3.15404">
        <ele>451</ele>
        <time>2012-11-13T13:58:30Z</time>
      </trkpt>
      <trkpt lat="45.54798" lon="3.15375">
        <ele>451</ele>
        <time>2012-11-13T13:58:34Z</time>
      </trkpt>
      <trkpt lat="45.54805" lon="3.15348">
        <ele>452</ele>
        <time>2012-11-13T13:58:38Z</time>
      </trkpt>
      <trkpt lat="45.5481" lon="3.15318">
        <ele>452</ele>
        <time>2012-11-13T13:58:42Z</time>
      </trkpt>
      <trkpt lat="45.54815" lon="3.15291">
        <ele>452</ele>
        <time>2012-11-13T13:58:46Z</time>
      </trkpt>
      <trkpt lat="45.5482" lon="3.15262">
        <ele>452</ele>
        <time>2012-11-13T13:58:50Z</time>
      </trkpt>
      <trkpt lat="45.54826" lon="3.15236">
        <ele>452</ele>
        <time>2012-11-13T13:58:54Z</time>
      </trkpt>
      <trkpt lat="45.54832" lon="3.15208">
        <ele>452</ele>
        <time>2012-11-13T13:58:58Z</time>
      </trkpt>
      <trkpt lat="45.54838" lon="3.15179">
        <ele>452</ele>
        <time>2012-11-13T13:59:02Z</time>
      </trkpt>
      <trkpt lat="45.54844" lon="3.1515">
        <ele>452</ele>
        <time>2012-11-13T13:59:06Z</time>
      </trkpt>
      <trkpt lat="45.54849" lon="3.15121">
        <ele>452</ele>
        <time>2012-11-13T13:59:10Z</time>
      </trkpt>
      <trkpt lat="45.54855" lon="3.15092">
        <ele>452</ele>
        <time>2012-11-13T13:59:14Z</time>
      </trkpt>
      <trkpt lat="45.54861" lon="3.15062">
        <ele>453</ele>
        <time>2012-11-13T13:59:18Z</time>
      </trkpt>
      <trkpt lat="45.54867" lon="3.15034">
        <ele>453</ele>
        <time>2012-11-13T13:59:22Z</time>
      </trkpt>
      <trkpt lat="45.54873" lon="3.15004">
        <ele>454</ele>
        <time>2012-11-13T13:59:26Z</time>
      </trkpt>
      <trkpt lat="45.54879" lon="3.14975">
        <ele>455</ele>
        <time>2012-11-13T13:59:30Z</time>
      </trkpt>
      <trkpt lat="45.54885" lon="3.14947">
        <ele>455</ele>
        <time>2012-11-13T13:59:34Z</time>
      </trkpt>
      <trkpt lat="45.54888" lon="3.14918">
        <ele>456</ele>
        <time>2012-11-13T13:59:38Z</time>
      </trkpt>
      <trkpt lat="45.54889" lon="3.14887">
        <ele>457</ele>
        <time>2012-11-13T13:59:42Z</time>
      </trkpt>
      <trkpt lat="45.54889" lon="3.14856">
        <ele>457</ele>
        <time>2012-11-13T13:59:46Z</time>
      </trkpt>
      <trkpt lat="45.54895" lon="3.14827">
        <ele>457</ele>
        <time>2012-11-13T13:59:50Z</time>
      </trkpt>
      <trkpt lat="45.54904" lon="3.14799">
        <ele>457</ele>
        <time>2012-11-13T13:59:54Z</time>
      </trkpt>
      <trkpt lat="45.54913" lon="3.14768">
        <ele>457</ele>
        <time>2012-11-13T13:59:58Z</time>
      </trkpt>
      <trkpt lat="45.54923" lon="3.14738">
        <ele>457</ele>
        <time>2012-11-13T14:00:02Z</time>
      </trkpt>
      <trkpt lat="45.54933" lon="3.14707">
        <ele>457</ele>
        <time>2012-11-13T14:00:06Z</time>
      </trkpt>
      <trkpt lat="45.54943" lon="3.14679">
        <ele>457</ele>
        <time>2012-11-13T14:00:10Z</time>
      </trkpt>
      <trkpt lat="45.54951" lon="3.1465">
        <ele>458</ele>
        <time>2012-11-13T14:00:14Z</time>
      </trkpt>
      <trkpt lat="45.54959" lon="3.14621">
        <ele>458</ele>
        <time>2012-11-13T14:00:18Z</time>
      </trkpt>
      <trkpt lat="45.54969" lon="3.14593">
        <ele>458</ele>
        <time>2012-11-13T14:00:22Z</time>
      </trkpt>
      <trkpt lat="45.54979" lon="3.14567">
        <ele>458</ele>
        <time>2012-11-13T14:00:26Z</time>
      </trkpt>
      <trkpt lat="45.54987" lon="3.14539">
        <ele>459</ele>
        <time>2012-11-13T14:00:30Z</time>
      </trkpt>
      <trkpt lat="45.54997" lon="3.1451">
        <ele>459</ele>
        <time>2012-11-13T14:00:34Z</time>
      </trkpt>
      <trkpt lat="45.55005" lon="3.14485">
        <ele>459</ele>
        <time>2012-11-13T14:00:38Z</time>
      </trkpt>
      <trkpt lat="45.55012" lon="3.14459">
        <ele>459</ele>
        <time>2012-11-13T14:00:41Z</time>
      </trkpt>
      <trkpt lat="45.55019" lon="3.14434">
        <ele>459</ele>
        <time>2012-11-13T14:00:45Z</time>
      </trkpt>
      <trkpt lat="45.55028" lon="3.14405">
        <ele>461</ele>
        <time>2012-11-13T14:00:49Z</time>
      </trkpt>
      <trkpt lat="45.55036" lon="3.14381">
        <ele>461</ele>
        <time>2012-11-13T14:00:53Z</time>
      </trkpt>
      <trkpt lat="45.55046" lon="3.14355">
        <ele>461</ele>
        <time>2012-11-13T14:00:57Z</time>
      </trkpt>
      <trkpt lat="45.55055" lon="3.14328">
        <ele>463</ele>
        <time>2012-11-13T14:01:01Z</time>
      </trkpt>
      <trkpt lat="45.55064" lon="3.14298">
        <ele>464</ele>
        <time>2012-11-13T14:01:05Z</time>
      </trkpt>
      <trkpt lat="45.55075" lon="3.1427">
        <ele>464</ele>
        <time>2012-11-13T14:01:09Z</time>
      </trkpt>
      <trkpt lat="45.55092" lon="3.1425">
        <ele>464</ele>
        <time>2012-11-13T14:01:13Z</time>
      </trkpt>
      <trkpt lat="45.55112" lon="3.14236">
        <ele>464</ele>
        <time>2012-11-13T14:01:17Z</time>
      </trkpt>
      <trkpt lat="45.5513" lon="3.14224">
        <ele>464</ele>
        <time>2012-11-13T14:01:21Z</time>
      </trkpt>
      <trkpt lat="45.5515" lon="3.14239">
        <ele>463</ele>
        <time>2012-11-13T14:01:25Z</time>
      </trkpt>
      <trkpt lat="45.55169" lon="3.14254">
        <ele>462</ele>
        <time>2012-11-13T14:01:29Z</time>
      </trkpt>
      <trkpt lat="45.55186" lon="3.14273">
        <ele>462</ele>
        <time>2012-11-13T14:01:33Z</time>
      </trkpt>
      <trkpt lat="45.55202" lon="3.14298">
        <ele>462</ele>
        <time>2012-11-13T14:01:37Z</time>
      </trkpt>
      <trkpt lat="45.55213" lon="3.14319">
        <ele>461</ele>
        <time>2012-11-13T14:01:40Z</time>
      </trkpt>
      <trkpt lat="45.55226" lon="3.14341">
        <ele>461</ele>
        <time>2012-11-13T14:01:43Z</time>
      </trkpt>
      <trkpt lat="45.55239" lon="3.14359">
        <ele>461</ele>
        <time>2012-11-13T14:01:46Z</time>
      </trkpt>
      <trkpt lat="45.55254" lon="3.14383">
        <ele>460</ele>
        <time>2012-11-13T14:01:50Z</time>
      </trkpt>
      <trkpt lat="45.55266" lon="3.14404">
        <ele>460</ele>
        <time>2012-11-13T14:02:21Z</time>
      </trkpt>
      <trkpt lat="45.55276" lon="3.14426">
        <ele>460</ele>
        <time>2012-11-13T14:02:45Z</time>
      </trkpt>
      <trkpt lat="45.55288" lon="3.14445">
        <ele>460</ele>
        <time>2012-11-13T14:02:52Z</time>
      </trkpt>
      <trkpt lat="45.55305" lon="3.14462">
        <ele>460</ele>
        <time>2012-11-13T14:03:03Z</time>
      </trkpt>
      <trkpt lat="45.55317" lon="3.14481">
        <ele>460</ele>
        <time>2012-11-13T14:03:11Z</time>
      </trkpt>
      <trkpt lat="45.55332" lon="3.14502">
        <ele>461</ele>
        <time>2012-11-13T14:03:17Z</time>
      </trkpt>
      <trkpt lat="45.55346" lon="3.14523">
        <ele>463</ele>
        <time>2012-11-13T14:03:22Z</time>
      </trkpt>
      <trkpt lat="45.5536" lon="3.14546">
        <ele>464</ele>
        <time>2012-11-13T14:03:27Z</time>
      </trkpt>
      <trkpt lat="45.55372" lon="3.14568">
        <ele>464</ele>
        <time>2012-11-13T14:03:32Z</time>
      </trkpt>
      <trkpt lat="45.55378" lon="3.14595">
        <ele>464</ele>
        <time>2012-11-13T14:03:37Z</time>
      </trkpt>
      <trkpt lat="45.55381" lon="3.14623">
        <ele>464</ele>
        <time>2012-11-13T14:03:42Z</time>
      </trkpt>
      <trkpt lat="45.55385" lon="3.14651">
        <ele>465</ele>
        <time>2012-11-13T14:03:47Z</time>
      </trkpt>
      <trkpt lat="45.5539" lon="3.14679">
        <ele>466</ele>
        <time>2012-11-13T14:03:51Z</time>
      </trkpt>
      <trkpt lat="45.55397" lon="3.14704">
        <ele>466</ele>
        <time>2012-11-13T14:03:57Z</time>
      </trkpt>
      <trkpt lat="45.55403" lon="3.14735">
        <ele>467</ele>
        <time>2012-11-13T14:04:03Z</time>
      </trkpt>
      <trkpt lat="45.55405" lon="3.14763">
        <ele>468</ele>
        <time>2012-11-13T14:04:10Z</time>
      </trkpt>
      <trkpt lat="45.55398" lon="3.14787">
        <ele>468</ele>
        <time>2012-11-13T14:04:17Z</time>
      </trkpt>
      <trkpt lat="45.55402" lon="3.14816">
        <ele>469</ele>
        <time>2012-11-13T14:04:21Z</time>
      </trkpt>
      <trkpt lat="45.55409" lon="3.1484">
        <ele>470</ele>
        <time>2012-11-13T14:04:26Z</time>
      </trkpt>
      <trkpt lat="45.55412" lon="3.14866">
        <ele>469</ele>
        <time>2012-11-13T14:04:35Z</time>
      </trkpt>
      <trkpt lat="45.55421" lon="3.14891">
        <ele>472</ele>
        <time>2012-11-13T14:04:49Z</time>
      </trkpt>
      <trkpt lat="45.5544" lon="3.14889">
        <ele>473</ele>
        <time>2012-11-13T14:04:56Z</time>
      </trkpt>
      <trkpt lat="45.55459" lon="3.14884">
        <ele>473</ele>
        <time>2012-11-13T14:05:02Z</time>
      </trkpt>
      <trkpt lat="45.55468" lon="3.1486">
        <ele>474</ele>
        <time>2012-11-13T14:05:08Z</time>
      </trkpt>
      <trkpt lat="45.55485" lon="3.14847">
        <ele>474</ele>
        <time>2012-11-13T14:05:15Z</time>
      </trkpt>
      <trkpt lat="45.55504" lon="3.14847">
        <ele>476</ele>
        <time>2012-11-13T14:05:20Z</time>
      </trkpt>
      <trkpt lat="45.55522" lon="3.14852">
        <ele>477</ele>
        <time>2012-11-13T14:05:26Z</time>
      </trkpt>
      <trkpt lat="45.5551" lon="3.14875">
        <ele>477</ele>
        <time>2012-11-13T14:05:31Z</time>
      </trkpt>
      <trkpt lat="45.55493" lon="3.14888">
        <ele>474</ele>
        <time>2012-11-13T14:05:35Z</time>
      </trkpt>
      <trkpt lat="45.55473" lon="3.14904">
        <ele>474</ele>
        <time>2012-11-13T14:05:39Z</time>
      </trkpt>
      <trkpt lat="45.55454" lon="3.14916">
        <ele>473</ele>
        <time>2012-11-13T14:05:42Z</time>
      </trkpt>
      <trkpt lat="45.55435" lon="3.14929">
        <ele>472</ele>
        <time>2012-11-13T14:05:44Z</time>
      </trkpt>
      <trkpt lat="45.55416" lon="3.14942">
        <ele>469</ele>
        <time>2012-11-13T14:05:47Z</time>
      </trkpt>
      <trkpt lat="45.55407" lon="3.14966">
        <ele>469</ele>
        <time>2012-11-13T14:05:51Z</time>
      </trkpt>
      <trkpt lat="45.55399" lon="3.1499">
        <ele>470</ele>
        <time>2012-11-13T14:05:55Z</time>
      </trkpt>
      <trkpt lat="45.55393" lon="3.15016">
        <ele>470</ele>
        <time>2012-11-13T14:05:59Z</time>
      </trkpt>
      <trkpt lat="45.55388" lon="3.15042">
        <ele>470</ele>
        <time>2012-11-13T14:06:03Z</time>
      </trkpt>
      <trkpt lat="45.55387" lon="3.15071">
        <ele>470</ele>
        <time>2012-11-13T14:06:08Z</time>
      </trkpt>
      <trkpt lat="45.55393" lon="3.15101">
        <ele>471</ele>
        <time>2012-11-13T14:06:13Z</time>
      </trkpt>
      <trkpt lat="45.55398" lon="3.15126">
        <ele>471</ele>
        <time>2012-11-13T14:06:17Z</time>
      </trkpt>
      <trkpt lat="45.55404" lon="3.15154">
        <ele>471</ele>
        <time>2012-11-13T14:06:22Z</time>
      </trkpt>
      <trkpt lat="45.55413" lon="3.15183">
        <ele>471</ele>
        <time>2012-11-13T14:06:27Z</time>
      </trkpt>
      <trkpt lat="45.55424" lon="3.15208">
        <ele>476</ele>
        <time>2012-11-13T14:06:32Z</time>
      </trkpt>
      <trkpt lat="45.55436" lon="3.15231">
        <ele>477</ele>
        <time>2012-11-13T14:06:37Z</time>
      </trkpt>
      <trkpt lat="45.5545" lon="3.15253">
        <ele>478</ele>
        <time>2012-11-13T14:06:42Z</time>
      </trkpt>
      <trkpt lat="45.55464" lon="3.15275">
        <ele>479</ele>
        <time>2012-11-13T14:06:48Z</time>
      </trkpt>
      <trkpt lat="45.55478" lon="3.15296">
        <ele>480</ele>
        <time>2012-11-13T14:06:54Z</time>
      </trkpt>
      <trkpt lat="45.55491" lon="3.15316">
        <ele>481</ele>
        <time>2012-11-13T14:07:00Z</time>
      </trkpt>
      <trkpt lat="45.55505" lon="3.15337">
        <ele>485</ele>
        <time>2012-11-13T14:07:06Z</time>
      </trkpt>
      <trkpt lat="45.55517" lon="3.15358">
        <ele>486</ele>
        <time>2012-11-13T14:07:12Z</time>
      </trkpt>
      <trkpt lat="45.55527" lon="3.15381">
        <ele>486</ele>
        <time>2012-11-13T14:07:18Z</time>
      </trkpt>
      <trkpt lat="45.55537" lon="3.15404">
        <ele>486</ele>
        <time>2012-11-13T14:07:24Z</time>
      </trkpt>
      <trkpt lat="45.55547" lon="3.15427">
        <ele>483</ele>
        <time>2012-11-13T14:07:30Z</time>
      </trkpt>
      <trkpt lat="45.55561" lon="3.1545">
        <ele>483</ele>
        <time>2012-11-13T14:07:36Z</time>
      </trkpt>
      <trkpt lat="45.5558" lon="3.15467">
        <ele>483</ele>
        <time>2012-11-13T14:07:41Z</time>
      </trkpt>
      <trkpt lat="45.556" lon="3.15479">
        <ele>486</ele>
        <time>2012-11-13T14:07:45Z</time>
      </trkpt>
      <trkpt lat="45.55621" lon="3.15489">
        <ele>487</ele>
        <time>2012-11-13T14:07:49Z</time>
      </trkpt>
      <trkpt lat="45.55644" lon="3.15499">
        <ele>488</ele>
        <time>2012-11-13T14:07:53Z</time>
      </trkpt>
      <trkpt lat="45.55661" lon="3.15507">
        <ele>487</ele>
        <time>2012-11-13T14:07:56Z</time>
      </trkpt>
      <trkpt lat="45.5568" lon="3.15517">
        <ele>488</ele>
        <time>2012-11-13T14:07:59Z</time>
      </trkpt>
      <trkpt lat="45.55699" lon="3.15528">
        <ele>488</ele>
        <time>2012-11-13T14:08:02Z</time>
      </trkpt>
      <trkpt lat="45.55717" lon="3.15539">
        <ele>488</ele>
        <time>2012-11-13T14:08:05Z</time>
      </trkpt>
      <trkpt lat="45.55734" lon="3.15552">
        <ele>487</ele>
        <time>2012-11-13T14:08:08Z</time>
      </trkpt>
      <trkpt lat="45.55753" lon="3.15565">
        <ele>489</ele>
        <time>2012-11-13T14:08:11Z</time>
      </trkpt>
      <trkpt lat="45.55773" lon="3.15577">
        <ele>489</ele>
        <time>2012-11-13T14:08:14Z</time>
      </trkpt>
      <trkpt lat="45.55793" lon="3.15587">
        <ele>488</ele>
        <time>2012-11-13T14:08:17Z</time>
      </trkpt>
      <trkpt lat="45.55811" lon="3.15598">
        <ele>489</ele>
        <time>2012-11-13T14:08:20Z</time>
      </trkpt>
      <trkpt lat="45.55829" lon="3.1561">
        <ele>489</ele>
        <time>2012-11-13T14:08:23Z</time>
      </trkpt>
      <trkpt lat="45.55846" lon="3.15622">
        <ele>490</ele>
        <time>2012-11-13T14:08:26Z</time>
      </trkpt>
      <trkpt lat="45.55867" lon="3.15637">
        <ele>490</ele>
        <time>2012-11-13T14:08:30Z</time>
      </trkpt>
      <trkpt lat="45.55886" lon="3.15651">
        <ele>490</ele>
        <time>2012-11-13T14:08:34Z</time>
      </trkpt>
      <trkpt lat="45.55904" lon="3.15667">
        <ele>489</ele>
        <time>2012-11-13T14:08:38Z</time>
      </trkpt>
      <trkpt lat="45.55924" lon="3.15681">
        <ele>490</ele>
        <time>2012-11-13T14:08:42Z</time>
      </trkpt>
      <trkpt lat="45.55942" lon="3.15696">
        <ele>491</ele>
        <time>2012-11-13T14:08:46Z</time>
      </trkpt>
      <trkpt lat="45.55962" lon="3.15711">
        <ele>491</ele>
        <time>2012-11-13T14:08:50Z</time>
      </trkpt>
      <trkpt lat="45.55981" lon="3.15726">
        <ele>491</ele>
        <time>2012-11-13T14:08:54Z</time>
      </trkpt>
      <trkpt lat="45.56001" lon="3.15739">
        <ele>492</ele>
        <time>2012-11-13T14:08:57Z</time>
      </trkpt>
      <trkpt lat="45.56021" lon="3.15753">
        <ele>491</ele>
        <time>2012-11-13T14:09:02Z</time>
      </trkpt>
      <trkpt lat="45.56041" lon="3.15766">
        <ele>492</ele>
        <time>2012-11-13T14:09:05Z</time>
      </trkpt>
      <trkpt lat="45.56062" lon="3.15778">
        <ele>492</ele>
        <time>2012-11-13T14:09:10Z</time>
      </trkpt>
      <trkpt lat="45.56083" lon="3.15792">
        <ele>492</ele>
        <time>2012-11-13T14:09:14Z</time>
      </trkpt>
      <trkpt lat="45.56105" lon="3.15805">
        <ele>494</ele>
        <time>2012-11-13T14:09:18Z</time>
      </trkpt>
      <trkpt lat="45.56125" lon="3.15819">
        <ele>495</ele>
        <time>2012-11-13T14:09:22Z</time>
      </trkpt>
      <trkpt lat="45.56145" lon="3.15831">
        <ele>495</ele>
        <time>2012-11-13T14:09:26Z</time>
      </trkpt>
      <trkpt lat="45.56165" lon="3.15845">
        <ele>495</ele>
        <time>2012-11-13T14:09:29Z</time>
      </trkpt>
      <trkpt lat="45.56185" lon="3.15856">
        <ele>497</ele>
        <time>2012-11-13T14:09:34Z</time>
      </trkpt>
      <trkpt lat="45.56202" lon="3.15866">
        <ele>498</ele>
        <time>2012-11-13T14:09:38Z</time>
      </trkpt>
      <trkpt lat="45.56221" lon="3.1588">
        <ele>498</ele>
        <time>2012-11-13T14:09:43Z</time>
      </trkpt>
      <trkpt lat="45.56239" lon="3.15894">
        <ele>498</ele>
        <time>2012-11-13T14:09:47Z</time>
      </trkpt>
      <trkpt lat="45.56255" lon="3.15907">
        <ele>501</ele>
        <time>2012-11-13T14:09:53Z</time>
      </trkpt>
      <trkpt lat="45.56272" lon="3.15918">
        <ele>501</ele>
        <time>2012-11-13T14:09:58Z</time>
      </trkpt>
      <trkpt lat="45.56293" lon="3.15929">
        <ele>503</ele>
        <time>2012-11-13T14:10:03Z</time>
      </trkpt>
      <trkpt lat="45.5631" lon="3.15941">
        <ele>504</ele>
        <time>2012-11-13T14:10:08Z</time>
      </trkpt>
      <trkpt lat="45.56329" lon="3.15955">
        <ele>504</ele>
        <time>2012-11-13T14:10:13Z</time>
      </trkpt>
      <trkpt lat="45.56346" lon="3.15969">
        <ele>508</ele>
        <time>2012-11-13T14:10:18Z</time>
      </trkpt>
      <trkpt lat="45.56364" lon="3.15984">
        <ele>508</ele>
        <time>2012-11-13T14:10:23Z</time>
      </trkpt>
      <trkpt lat="45.56382" lon="3.16">
        <ele>509</ele>
        <time>2012-11-13T14:10:27Z</time>
      </trkpt>
      <trkpt lat="45.564" lon="3.16014">
        <ele>508</ele>
        <time>2012-11-13T14:10:32Z</time>
      </trkpt>
      <trkpt lat="45.56418" lon="3.16029">
        <ele>509</ele>
        <time>2012-11-13T14:10:38Z</time>
      </trkpt>
      <trkpt lat="45.56435" lon="3.16041">
        <ele>508</ele>
        <time>2012-11-13T14:10:42Z</time>
      </trkpt>
      <trkpt lat="45.56454" lon="3.16049">
        <ele>508</ele>
        <time>2012-11-13T14:10:46Z</time>
      </trkpt>
      <trkpt lat="45.5647" lon="3.16064">
        <ele>508</ele>
        <time>2012-11-13T14:10:50Z</time>
      </trkpt>
      <trkpt lat="45.56491" lon="3.16076">
        <ele>507</ele>
        <time>2012-11-13T14:10:54Z</time>
      </trkpt>
      <trkpt lat="45.5651" lon="3.16086">
        <ele>507</ele>
        <time>2012-11-13T14:10:57Z</time>
      </trkpt>
      <trkpt lat="45.56529" lon="3.16093">
        <ele>507</ele>
        <time>2012-11-13T14:10:59Z</time>
      </trkpt>
      <trkpt lat="45.56547" lon="3.16101">
        <ele>506</ele>
        <time>2012-11-13T14:11:03Z</time>
      </trkpt>
      <trkpt lat="45.56564" lon="3.16113">
        <ele>506</ele>
        <time>2012-11-13T14:11:06Z</time>
      </trkpt>
      <trkpt lat="45.5658" lon="3.16131">
        <ele>507</ele>
        <time>2012-11-13T14:11:09Z</time>
      </trkpt>
      <trkpt lat="45.56595" lon="3.16151">
        <ele>507</ele>
        <time>2012-11-13T14:11:12Z</time>
      </trkpt>
      <trkpt lat="45.56608" lon="3.16169">
        <ele>508</ele>
        <time>2012-11-13T14:11:15Z</time>
      </trkpt>
      <trkpt lat="45.56625" lon="3.16193">
        <ele>509</ele>
        <time>2012-11-13T14:11:19Z</time>
      </trkpt>
      <trkpt lat="45.56641" lon="3.16213">
        <ele>509</ele>
        <time>2012-11-13T14:11:23Z</time>
      </trkpt>
      <trkpt lat="45.56658" lon="3.16231">
        <ele>510</ele>
        <time>2012-11-13T14:11:27Z</time>
      </trkpt>
      <trkpt lat="45.56674" lon="3.16245">
        <ele>512</ele>
        <time>2012-11-13T14:11:31Z</time>
      </trkpt>
      <trkpt lat="45.56691" lon="3.16258">
        <ele>514</ele>
        <time>2012-11-13T14:11:36Z</time>
      </trkpt>
      <trkpt lat="45.56711" lon="3.16268">
        <ele>514</ele>
        <time>2012-11-13T14:11:41Z</time>
      </trkpt>
      <trkpt lat="45.5673" lon="3.16281">
        <ele>515</ele>
        <time>2012-11-13T14:11:46Z</time>
      </trkpt>
      <trkpt lat="45.56745" lon="3.163">
        <ele>515</ele>
        <time>2012-11-13T14:11:50Z</time>
      </trkpt>
      <trkpt lat="45.56745" lon="3.16327">
        <ele>516</ele>
        <time>2012-11-13T14:11:57Z</time>
      </trkpt>
      <trkpt lat="45.56733" lon="3.1635">
        <ele>518</ele>
        <time>2012-11-13T14:12:03Z</time>
      </trkpt>
      <trkpt lat="45.56721" lon="3.16374">
        <ele>519</ele>
        <time>2012-11-13T14:12:09Z</time>
      </trkpt>
      <trkpt lat="45.56708" lon="3.16398">
        <ele>519</ele>
        <time>2012-11-13T14:12:15Z</time>
      </trkpt>
      <trkpt lat="45.56694" lon="3.16422">
        <ele>521</ele>
        <time>2012-11-13T14:12:20Z</time>
      </trkpt>
      <trkpt lat="45.56682" lon="3.16445">
        <ele>522</ele>
        <time>2012-11-13T14:12:27Z</time>
      </trkpt>
      <trkpt lat="45.56669" lon="3.16469">
        <ele>522</ele>
        <time>2012-11-13T14:12:33Z</time>
      </trkpt>
      <trkpt lat="45.56658" lon="3.16492">
        <ele>523</ele>
        <time>2012-11-13T14:14:36Z</time>
      </trkpt>
      <trkpt lat="45.56649" lon="3.16517">
        <ele>524</ele>
        <time>2012-11-13T14:14:42Z</time>
      </trkpt>
      <trkpt lat="45.56641" lon="3.16542">
        <ele>524</ele>
        <time>2012-11-13T14:14:47Z</time>
      </trkpt>
      <trkpt lat="45.56635" lon="3.16567">
        <ele>524</ele>
        <time>2012-11-13T14:14:51Z</time>
      </trkpt>
      <trkpt lat="45.5663" lon="3.16593">
        <ele>525</ele>
        <time>2012-11-13T14:14:55Z</time>
      </trkpt>
      <trkpt lat="45.56629" lon="3.16619">
        <ele>525</ele>
        <time>2012-11-13T14:14:59Z</time>
      </trkpt>
      <trkpt lat="45.56627" lon="3.16645">
        <ele>525</ele>
        <time>2012-11-13T14:15:03Z</time>
      </trkpt>
      <trkpt lat="45.56626" lon="3.16671">
        <ele>528</ele>
        <time>2012-11-13T14:15:07Z</time>
      </trkpt>
      <trkpt lat="45.56623" lon="3.167">
        <ele>528</ele>
        <time>2012-11-13T14:15:12Z</time>
      </trkpt>
      <trkpt lat="45.56622" lon="3.16727">
        <ele>529</ele>
        <time>2012-11-13T14:15:17Z</time>
      </trkpt>
      <trkpt lat="45.56626" lon="3.16752">
        <ele>532</ele>
        <time>2012-11-13T14:15:22Z</time>
      </trkpt>
      <trkpt lat="45.56633" lon="3.16778">
        <ele>533</ele>
        <time>2012-11-13T14:15:27Z</time>
      </trkpt>
      <trkpt lat="45.56644" lon="3.168">
        <ele>534</ele>
        <time>2012-11-13T14:15:32Z</time>
      </trkpt>
      <trkpt lat="45.56656" lon="3.16823">
        <ele>534</ele>
        <time>2012-11-13T14:15:37Z</time>
      </trkpt>
      <trkpt lat="45.56668" lon="3.16844">
        <ele>536</ele>
        <time>2012-11-13T14:15:42Z</time>
      </trkpt>
      <trkpt lat="45.56679" lon="3.16864">
        <ele>538</ele>
        <time>2012-11-13T14:15:47Z</time>
      </trkpt>
      <trkpt lat="45.56693" lon="3.16881">
        <ele>539</ele>
        <time>2012-11-13T14:15:52Z</time>
      </trkpt>
      <trkpt lat="45.56709" lon="3.16896">
        <ele>539</ele>
        <time>2012-11-13T14:15:57Z</time>
      </trkpt>
      <trkpt lat="45.56725" lon="3.16909">
        <ele>539</ele>
        <time>2012-11-13T14:16:01Z</time>
      </trkpt>
      <trkpt lat="45.56739" lon="3.16926">
        <ele>543</ele>
        <time>2012-11-13T14:16:07Z</time>
      </trkpt>
      <trkpt lat="45.56738" lon="3.16952">
        <ele>545</ele>
        <time>2012-11-13T14:16:13Z</time>
      </trkpt>
      <trkpt lat="45.5672" lon="3.1696">
        <ele>546</ele>
        <time>2012-11-13T14:16:19Z</time>
      </trkpt>
      <trkpt lat="45.56702" lon="3.16956">
        <ele>546</ele>
        <time>2012-11-13T14:16:24Z</time>
      </trkpt>
      <trkpt lat="45.56683" lon="3.16952">
        <ele>546</ele>
        <time>2012-11-13T14:16:29Z</time>
      </trkpt>
      <trkpt lat="45.56662" lon="3.16953">
        <ele>549</ele>
        <time>2012-11-13T14:16:35Z</time>
      </trkpt>
      <trkpt lat="45.56641" lon="3.16956">
        <ele>549</ele>
        <time>2012-11-13T14:16:41Z</time>
      </trkpt>
      <trkpt lat="45.56621" lon="3.16964">
        <ele>550</ele>
        <time>2012-11-13T14:16:47Z</time>
      </trkpt>
      <trkpt lat="45.56602" lon="3.16971">
        <ele>551</ele>
        <time>2012-11-13T14:16:53Z</time>
      </trkpt>
      <trkpt lat="45.56584" lon="3.16979">
        <ele>552</ele>
        <time>2012-11-13T14:16:59Z</time>
      </trkpt>
      <trkpt lat="45.56566" lon="3.16992">
        <ele>553</ele>
        <time>2012-11-13T14:17:05Z</time>
      </trkpt>
      <trkpt lat="45.5655" lon="3.17007">
        <ele>557</ele>
        <time>2012-11-13T14:17:11Z</time>
      </trkpt>
      <trkpt lat="45.56534" lon="3.17022">
        <ele>557</ele>
        <time>2012-11-13T14:17:17Z</time>
      </trkpt>
      <trkpt lat="45.56519" lon="3.17038">
        <ele>557</ele>
        <time>2012-11-13T14:17:23Z</time>
      </trkpt>
      <trkpt lat="45.56504" lon="3.17055">
        <ele>558</ele>
        <time>2012-11-13T14:17:29Z</time>
      </trkpt>
      <trkpt lat="45.56489" lon="3.17071">
        <ele>559</ele>
        <time>2012-11-13T14:17:35Z</time>
      </trkpt>
      <trkpt lat="45.56472" lon="3.17087">
        <ele>563</ele>
        <time>2012-11-13T14:17:42Z</time>
      </trkpt>
      <trkpt lat="45.56456" lon="3.17103">
        <ele>564</ele>
        <time>2012-11-13T14:17:48Z</time>
      </trkpt>
      <trkpt lat="45.56439" lon="3.17119">
        <ele>565</ele>
        <time>2012-11-13T14:17:54Z</time>
      </trkpt>
      <trkpt lat="45.56423" lon="3.17136">
        <ele>566</ele>
        <time>2012-11-13T14:18:01Z</time>
      </trkpt>
      <trkpt lat="45.56408" lon="3.17152">
        <ele>567</ele>
        <time>2012-11-13T14:18:07Z</time>
      </trkpt>
      <trkpt lat="45.5639" lon="3.17169">
        <ele>572</ele>
        <time>2012-11-13T14:18:14Z</time>
      </trkpt>
      <trkpt lat="45.56375" lon="3.17188">
        <ele>573</ele>
        <time>2012-11-13T14:18:21Z</time>
      </trkpt>
      <trkpt lat="45.56359" lon="3.17206">
        <ele>574</ele>
        <time>2012-11-13T14:18:28Z</time>
      </trkpt>
      <trkpt lat="45.56343" lon="3.17223">
        <ele>575</ele>
        <time>2012-11-13T14:18:35Z</time>
      </trkpt>
      <trkpt lat="45.56322" lon="3.1723">
        <ele>573</ele>
        <time>2012-11-13T14:18:42Z</time>
      </trkpt>
      <trkpt lat="45.56304" lon="3.17238">
        <ele>572</ele>
        <time>2012-11-13T14:18:47Z</time>
      </trkpt>
      <trkpt lat="45.56299" lon="3.17266">
        <ele>576</ele>
        <time>2012-11-13T14:18:52Z</time>
      </trkpt>
      <trkpt lat="45.56286" lon="3.17289">
        <ele>576</ele>
        <time>2012-11-13T14:18:58Z</time>
      </trkpt>
      <trkpt lat="45.56272" lon="3.17313">
        <ele>576</ele>
        <time>2012-11-13T14:19:04Z</time>
      </trkpt>
      <trkpt lat="45.56256" lon="3.17332">
        <ele>576</ele>
        <time>2012-11-13T14:19:09Z</time>
      </trkpt>
      <trkpt lat="45.56244" lon="3.17354">
        <ele>575</ele>
        <time>2012-11-13T14:19:14Z</time>
      </trkpt>
      <trkpt lat="45.56235" lon="3.17383">
        <ele>576</ele>
        <time>2012-11-13T14:19:20Z</time>
      </trkpt>
      <trkpt lat="45.56226" lon="3.17409">
        <ele>577</ele>
        <time>2012-11-13T14:19:25Z</time>
      </trkpt>
      <trkpt lat="45.5622" lon="3.17437">
        <ele>581</ele>
        <time>2012-11-13T14:19:31Z</time>
      </trkpt>
      <trkpt lat="45.56222" lon="3.17464">
        <ele>583</ele>
        <time>2012-11-13T14:19:38Z</time>
      </trkpt>
      <trkpt lat="45.56216" lon="3.1749">
        <ele>584</ele>
        <time>2012-11-13T14:19:48Z</time>
      </trkpt>
      <trkpt lat="45.5621" lon="3.17516">
        <ele>590</ele>
        <time>2012-11-13T14:19:59Z</time>
      </trkpt>
      <trkpt lat="45.56207" lon="3.17545">
        <ele>591</ele>
        <time>2012-11-13T14:20:09Z</time>
      </trkpt>
      <trkpt lat="45.56203" lon="3.17571">
        <ele>593</ele>
        <time>2012-11-13T14:20:20Z</time>
      </trkpt>
      <trkpt lat="45.56197" lon="3.17596">
        <ele>598</ele>
        <time>2012-11-13T14:20:30Z</time>
      </trkpt>
      <trkpt lat="45.56194" lon="3.17623">
        <ele>599</ele>
        <time>2012-11-13T14:20:41Z</time>
      </trkpt>
      <trkpt lat="45.56191" lon="3.17649">
        <ele>600</ele>
        <time>2012-11-13T14:20:52Z</time>
      </trkpt>
      <trkpt lat="45.56191" lon="3.17675">
        <ele>603</ele>
        <time>2012-11-13T14:21:04Z</time>
      </trkpt>
      <trkpt lat="45.56187" lon="3.17701">
        <ele>604</ele>
        <time>2012-11-13T14:21:15Z</time>
      </trkpt>
      <trkpt lat="45.56181" lon="3.17727">
        <ele>606</ele>
        <time>2012-11-13T14:21:27Z</time>
      </trkpt>
      <trkpt lat="45.56177" lon="3.17754">
        <ele>608</ele>
        <time>2012-11-13T14:21:38Z</time>
      </trkpt>
      <trkpt lat="45.5617" lon="3.1778">
        <ele>609</ele>
        <time>2012-11-13T14:21:47Z</time>
      </trkpt>
      <trkpt lat="45.56161" lon="3.17805">
        <ele>605</ele>
        <time>2012-11-13T14:21:54Z</time>
      </trkpt>
      <trkpt lat="45.56152" lon="3.1783">
        <ele>606</ele>
        <time>2012-11-13T14:21:59Z</time>
      </trkpt>
      <trkpt lat="45.56142" lon="3.17851">
        <ele>605</ele>
        <time>2012-11-13T14:22:03Z</time>
      </trkpt>
      <trkpt lat="45.56131" lon="3.17873">
        <ele>604</ele>
        <time>2012-11-13T14:22:07Z</time>
      </trkpt>
      <trkpt lat="45.56119" lon="3.17897">
        <ele>603</ele>
        <time>2012-11-13T14:22:11Z</time>
      </trkpt>
      <trkpt lat="45.56108" lon="3.17923">
        <ele>602</ele>
        <time>2012-11-13T14:22:15Z</time>
      </trkpt>
      <trkpt lat="45.56097" lon="3.17952">
        <ele>602</ele>
        <time>2012-11-13T14:22:19Z</time>
      </trkpt>
      <trkpt lat="45.56088" lon="3.17974">
        <ele>601</ele>
        <time>2012-11-13T14:22:22Z</time>
      </trkpt>
      <trkpt lat="45.56078" lon="3.17997">
        <ele>597</ele>
        <time>2012-11-13T14:22:25Z</time>
      </trkpt>
      <trkpt lat="45.56068" lon="3.1802">
        <ele>597</ele>
        <time>2012-11-13T14:22:28Z</time>
      </trkpt>
      <trkpt lat="45.5606" lon="3.18043">
        <ele>597</ele>
        <time>2012-11-13T14:22:31Z</time>
      </trkpt>
      <trkpt lat="45.56048" lon="3.18072">
        <ele>597</ele>
        <time>2012-11-13T14:22:35Z</time>
      </trkpt>
      <trkpt lat="45.56037" lon="3.18102">
        <ele>600</ele>
        <time>2012-11-13T14:22:39Z</time>
      </trkpt>
      <trkpt lat="45.56028" lon="3.18127">
        <ele>600</ele>
        <time>2012-11-13T14:22:42Z</time>
      </trkpt>
      <trkpt lat="45.5602" lon="3.18152">
        <ele>601</ele>
        <time>2012-11-13T14:22:45Z</time>
      </trkpt>
      <trkpt lat="45.56011" lon="3.18175">
        <ele>602</ele>
        <time>2012-11-13T14:22:48Z</time>
      </trkpt>
      <trkpt lat="45.56001" lon="3.18199">
        <ele>602</ele>
        <time>2012-11-13T14:22:51Z</time>
      </trkpt>
      <trkpt lat="45.5599" lon="3.18221">
        <ele>601</ele>
        <time>2012-11-13T14:22:54Z</time>
      </trkpt>
      <trkpt lat="45.55977" lon="3.18242">
        <ele>601</ele>
        <time>2012-11-13T14:22:57Z</time>
      </trkpt>
      <trkpt lat="45.55962" lon="3.18263">
        <ele>601</ele>
        <time>2012-11-13T14:23:00Z</time>
      </trkpt>
      <trkpt lat="45.55947" lon="3.18291">
        <ele>601</ele>
        <time>2012-11-13T14:23:03Z</time>
      </trkpt>
      <trkpt lat="45.55935" lon="3.18319">
        <ele>601</ele>
        <time>2012-11-13T14:23:06Z</time>
      </trkpt>
      <trkpt lat="45.55924" lon="3.18346">
        <ele>601</ele>
        <time>2012-11-13T14:23:09Z</time>
      </trkpt>
      <trkpt lat="45.55911" lon="3.18373">
        <ele>599</ele>
        <time>2012-11-13T14:23:12Z</time>
      </trkpt>
      <trkpt lat="45.55898" lon="3.184">
        <ele>599</ele>
        <time>2012-11-13T14:23:15Z</time>
      </trkpt>
      <trkpt lat="45.55884" lon="3.18426">
        <ele>600</ele>
        <time>2012-11-13T14:23:18Z</time>
      </trkpt>
      <trkpt lat="45.5587" lon="3.1845">
        <ele>599</ele>
        <time>2012-11-13T14:23:21Z</time>
      </trkpt>
      <trkpt lat="45.55857" lon="3.18474">
        <ele>599</ele>
        <time>2012-11-13T14:23:24Z</time>
      </trkpt>
      <trkpt lat="45.55842" lon="3.18497">
        <ele>600</ele>
        <time>2012-11-13T14:23:27Z</time>
      </trkpt>
      <trkpt lat="45.55828" lon="3.18519">
        <ele>600</ele>
        <time>2012-11-13T14:23:30Z</time>
      </trkpt>
      <trkpt lat="45.55815" lon="3.18542">
        <ele>599</ele>
        <time>2012-11-13T14:23:33Z</time>
      </trkpt>
      <trkpt lat="45.55802" lon="3.18563">
        <ele>599</ele>
        <time>2012-11-13T14:23:36Z</time>
      </trkpt>
      <trkpt lat="45.55789" lon="3.18584">
        <ele>600</ele>
        <time>2012-11-13T14:23:39Z</time>
      </trkpt>
      <trkpt lat="45.55777" lon="3.18607">
        <ele>600</ele>
        <time>2012-11-13T14:23:42Z</time>
      </trkpt>
      <trkpt lat="45.55764" lon="3.18629">
        <ele>600</ele>
        <time>2012-11-13T14:23:45Z</time>
      </trkpt>
      <trkpt lat="45.55753" lon="3.18653">
        <ele>600</ele>
        <time>2012-11-13T14:23:48Z</time>
      </trkpt>
      <trkpt lat="45.55742" lon="3.18678">
        <ele>600</ele>
        <time>2012-11-13T14:23:51Z</time>
      </trkpt>
      <trkpt lat="45.55733" lon="3.18703">
        <ele>599</ele>
        <time>2012-11-13T14:23:54Z</time>
      </trkpt>
      <trkpt lat="45.55725" lon="3.1873">
        <ele>599</ele>
        <time>2012-11-13T14:23:57Z</time>
      </trkpt>
      <trkpt lat="45.55717" lon="3.18757">
        <ele>598</ele>
        <time>2012-11-13T14:24:00Z</time>
      </trkpt>
      <trkpt lat="45.55711" lon="3.18784">
        <ele>598</ele>
        <time>2012-11-13T14:24:03Z</time>
      </trkpt>
      <trkpt lat="45.55704" lon="3.18812">
        <ele>598</ele>
        <time>2012-11-13T14:24:06Z</time>
      </trkpt>
      <trkpt lat="45.55699" lon="3.18841">
        <ele>597</ele>
        <time>2012-11-13T14:24:09Z</time>
      </trkpt>
      <trkpt lat="45.55692" lon="3.18871">
        <ele>596</ele>
        <time>2012-11-13T14:24:12Z</time>
      </trkpt>
      <trkpt lat="45.55689" lon="3.18901">
        <ele>596</ele>
        <time>2012-11-13T14:24:15Z</time>
      </trkpt>
      <trkpt lat="45.55687" lon="3.18933">
        <ele>595</ele>
        <time>2012-11-13T14:24:18Z</time>
      </trkpt>
      <trkpt lat="45.55685" lon="3.18963">
        <ele>595</ele>
        <time>2012-11-13T14:24:21Z</time>
      </trkpt>
      <trkpt lat="45.55684" lon="3.18992">
        <ele>595</ele>
        <time>2012-11-13T14:24:24Z</time>
      </trkpt>
      <trkpt lat="45.55679" lon="3.19021">
        <ele>594</ele>
        <time>2012-11-13T14:24:27Z</time>
      </trkpt>
      <trkpt lat="45.55677" lon="3.1905">
        <ele>593</ele>
        <time>2012-11-13T14:24:30Z</time>
      </trkpt>
      <trkpt lat="45.55677" lon="3.19081">
        <ele>593</ele>
        <time>2012-11-13T14:24:33Z</time>
      </trkpt>
      <trkpt lat="45.55682" lon="3.19111">
        <ele>592</ele>
        <time>2012-11-13T14:24:36Z</time>
      </trkpt>
      <trkpt lat="45.55685" lon="3.19141">
        <ele>592</ele>
        <time>2012-11-13T14:24:39Z</time>
      </trkpt>
      <trkpt lat="45.55687" lon="3.19171">
        <ele>592</ele>
        <time>2012-11-13T14:24:42Z</time>
      </trkpt>
      <trkpt lat="45.55689" lon="3.19201">
        <ele>592</ele>
        <time>2012-11-13T14:24:45Z</time>
      </trkpt>
      <trkpt lat="45.55688" lon="3.19231">
        <ele>592</ele>
        <time>2012-11-13T14:24:48Z</time>
      </trkpt>
      <trkpt lat="45.55687" lon="3.19259">
        <ele>593</ele>
        <time>2012-11-13T14:24:51Z</time>
      </trkpt>
      <trkpt lat="45.55685" lon="3.19288">
        <ele>592</ele>
        <time>2012-11-13T14:24:54Z</time>
      </trkpt>
      <trkpt lat="45.55684" lon="3.19316">
        <ele>592</ele>
        <time>2012-11-13T14:24:57Z</time>
      </trkpt>
      <trkpt lat="45.55685" lon="3.19344">
        <ele>591</ele>
        <time>2012-11-13T14:25:00Z</time>
      </trkpt>
      <trkpt lat="45.55686" lon="3.19371">
        <ele>590</ele>
        <time>2012-11-13T14:25:03Z</time>
      </trkpt>
      <trkpt lat="45.5569" lon="3.19398">
        <ele>590</ele>
        <time>2012-11-13T14:25:06Z</time>
      </trkpt>
      <trkpt lat="45.55693" lon="3.19424">
        <ele>589</ele>
        <time>2012-11-13T14:25:09Z</time>
      </trkpt>
      <trkpt lat="45.55697" lon="3.19452">
        <ele>589</ele>
        <time>2012-11-13T14:25:12Z</time>
      </trkpt>
      <trkpt lat="45.55701" lon="3.1948">
        <ele>589</ele>
        <time>2012-11-13T14:25:15Z</time>
      </trkpt>
      <trkpt lat="45.55704" lon="3.19508">
        <ele>588</ele>
        <time>2012-11-13T14:25:18Z</time>
      </trkpt>
      <trkpt lat="45.55707" lon="3.19537">
        <ele>588</ele>
        <time>2012-11-13T14:25:21Z</time>
      </trkpt>
      <trkpt lat="45.55711" lon="3.19565">
        <ele>588</ele>
        <time>2012-11-13T14:25:24Z</time>
      </trkpt>
      <trkpt lat="45.55718" lon="3.19592">
        <ele>586</ele>
        <time>2012-11-13T14:25:27Z</time>
      </trkpt>
      <trkpt lat="45.55726" lon="3.19621">
        <ele>586</ele>
        <time>2012-11-13T14:25:30Z</time>
      </trkpt>
      <trkpt lat="45.55736" lon="3.19648">
        <ele>585</ele>
        <time>2012-11-13T14:25:33Z</time>
      </trkpt>
      <trkpt lat="45.55747" lon="3.19675">
        <ele>584</ele>
        <time>2012-11-13T14:25:36Z</time>
      </trkpt>
      <trkpt lat="45.55757" lon="3.19703">
        <ele>584</ele>
        <time>2012-11-13T14:25:39Z</time>
      </trkpt>
      <trkpt lat="45.55767" lon="3.19732">
        <ele>584</ele>
        <time>2012-11-13T14:25:42Z</time>
      </trkpt>
      <trkpt lat="45.55773" lon="3.19762">
        <ele>583</ele>
        <time>2012-11-13T14:25:45Z</time>
      </trkpt>
      <trkpt lat="45.5578" lon="3.19792">
        <ele>582</ele>
        <time>2012-11-13T14:25:48Z</time>
      </trkpt>
      <trkpt lat="45.55785" lon="3.19824">
        <ele>582</ele>
        <time>2012-11-13T14:25:51Z</time>
      </trkpt>
      <trkpt lat="45.55788" lon="3.19858">
        <ele>580</ele>
        <time>2012-11-13T14:25:54Z</time>
      </trkpt>
      <trkpt lat="45.55788" lon="3.19896">
        <ele>579</ele>
        <time>2012-11-13T14:25:57Z</time>
      </trkpt>
      <trkpt lat="45.55788" lon="3.19922">
        <ele>577</ele>
        <time>2012-11-13T14:25:59Z</time>
      </trkpt>
      <trkpt lat="45.55786" lon="3.1995">
        <ele>576</ele>
        <time>2012-11-13T14:26:01Z</time>
      </trkpt>
      <trkpt lat="45.55784" lon="3.19978">
        <ele>576</ele>
        <time>2012-11-13T14:26:03Z</time>
      </trkpt>
      <trkpt lat="45.55786" lon="3.20006">
        <ele>574</ele>
        <time>2012-11-13T14:26:05Z</time>
      </trkpt>
      <trkpt lat="45.5579" lon="3.20033">
        <ele>573</ele>
        <time>2012-11-13T14:26:07Z</time>
      </trkpt>
      <trkpt lat="45.55795" lon="3.20059">
        <ele>572</ele>
        <time>2012-11-13T14:26:09Z</time>
      </trkpt>
      <trkpt lat="45.558" lon="3.20086">
        <ele>569</ele>
        <time>2012-11-13T14:26:11Z</time>
      </trkpt>
      <trkpt lat="45.55806" lon="3.20113">
        <ele>569</ele>
        <time>2012-11-13T14:26:13Z</time>
      </trkpt>
      <trkpt lat="45.55811" lon="3.20141">
        <ele>567</ele>
        <time>2012-11-13T14:26:15Z</time>
      </trkpt>
      <trkpt lat="45.55814" lon="3.20169">
        <ele>564</ele>
        <time>2012-11-13T14:26:17Z</time>
      </trkpt>
      <trkpt lat="45.55815" lon="3.202">
        <ele>564</ele>
        <time>2012-11-13T14:26:19Z</time>
      </trkpt>
      <trkpt lat="45.5581" lon="3.20231">
        <ele>563</ele>
        <time>2012-11-13T14:26:21Z</time>
      </trkpt>
      <trkpt lat="45.55803" lon="3.20264">
        <ele>561</ele>
        <time>2012-11-13T14:26:23Z</time>
      </trkpt>
      <trkpt lat="45.55801" lon="3.20298">
        <ele>561</ele>
        <time>2012-11-13T14:26:25Z</time>
      </trkpt>
      <trkpt lat="45.55807" lon="3.20327">
        <ele>560</ele>
        <time>2012-11-13T14:26:27Z</time>
      </trkpt>
      <trkpt lat="45.55818" lon="3.20355">
        <ele>558</ele>
        <time>2012-11-13T14:26:29Z</time>
      </trkpt>
      <trkpt lat="45.55829" lon="3.20384">
        <ele>558</ele>
        <time>2012-11-13T14:26:31Z</time>
      </trkpt>
      <trkpt lat="45.55836" lon="3.20414">
        <ele>554</ele>
        <time>2012-11-13T14:26:33Z</time>
      </trkpt>
      <trkpt lat="45.55839" lon="3.20445">
        <ele>552</ele>
        <time>2012-11-13T14:26:35Z</time>
      </trkpt>
      <trkpt lat="45.55841" lon="3.20474">
        <ele>551</ele>
        <time>2012-11-13T14:26:37Z</time>
      </trkpt>
      <trkpt lat="45.55843" lon="3.205">
        <ele>550</ele>
        <time>2012-11-13T14:26:39Z</time>
      </trkpt>
      <trkpt lat="45.55845" lon="3.20526">
        <ele>547</ele>
        <time>2012-11-13T14:26:41Z</time>
      </trkpt>
      <trkpt lat="45.55847" lon="3.20553">
        <ele>546</ele>
        <time>2012-11-13T14:26:43Z</time>
      </trkpt>
      <trkpt lat="45.55849" lon="3.2058">
        <ele>545</ele>
        <time>2012-11-13T14:26:45Z</time>
      </trkpt>
      <trkpt lat="45.5585" lon="3.20608">
        <ele>543</ele>
        <time>2012-11-13T14:26:47Z</time>
      </trkpt>
      <trkpt lat="45.5585" lon="3.20635">
        <ele>542</ele>
        <time>2012-11-13T14:26:49Z</time>
      </trkpt>
      <trkpt lat="45.55849" lon="3.20662">
        <ele>542</ele>
        <time>2012-11-13T14:26:51Z</time>
      </trkpt>
      <trkpt lat="45.55845" lon="3.20689">
        <ele>539</ele>
        <time>2012-11-13T14:26:53Z</time>
      </trkpt>
      <trkpt lat="45.5584" lon="3.20716">
        <ele>538</ele>
        <time>2012-11-13T14:26:55Z</time>
      </trkpt>
      <trkpt lat="45.55832" lon="3.20743">
        <ele>539</ele>
        <time>2012-11-13T14:26:57Z</time>
      </trkpt>
      <trkpt lat="45.55821" lon="3.2077">
        <ele>538</ele>
        <time>2012-11-13T14:26:59Z</time>
      </trkpt>
      <trkpt lat="45.55807" lon="3.20794">
        <ele>538</ele>
        <time>2012-11-13T14:27:01Z</time>
      </trkpt>
      <trkpt lat="45.55794" lon="3.20824">
        <ele>539</ele>
        <time>2012-11-13T14:27:04Z</time>
      </trkpt>
      <trkpt lat="45.55799" lon="3.20858">
        <ele>538</ele>
        <time>2012-11-13T14:27:07Z</time>
      </trkpt>
      <trkpt lat="45.5581" lon="3.20888">
        <ele>537</ele>
        <time>2012-11-13T14:27:10Z</time>
      </trkpt>
      <trkpt lat="45.55821" lon="3.20921">
        <ele>536</ele>
        <time>2012-11-13T14:27:13Z</time>
      </trkpt>
      <trkpt lat="45.55829" lon="3.20954">
        <ele>537</ele>
        <time>2012-11-13T14:27:16Z</time>
      </trkpt>
      <trkpt lat="45.55837" lon="3.2099">
        <ele>530</ele>
        <time>2012-11-13T14:27:19Z</time>
      </trkpt>
      <trkpt lat="45.55841" lon="3.21016">
        <ele>528</ele>
        <time>2012-11-13T14:27:21Z</time>
      </trkpt>
      <trkpt lat="45.55843" lon="3.21043">
        <ele>526</ele>
        <time>2012-11-13T14:27:23Z</time>
      </trkpt>
      <trkpt lat="45.55843" lon="3.2107">
        <ele>526</ele>
        <time>2012-11-13T14:27:25Z</time>
      </trkpt>
      <trkpt lat="45.55843" lon="3.21098">
        <ele>524</ele>
        <time>2012-11-13T14:27:27Z</time>
      </trkpt>
      <trkpt lat="45.55843" lon="3.21126">
        <ele>522</ele>
        <time>2012-11-13T14:27:29Z</time>
      </trkpt>
      <trkpt lat="45.55842" lon="3.21156">
        <ele>523</ele>
        <time>2012-11-13T14:27:31Z</time>
      </trkpt>
      <trkpt lat="45.55841" lon="3.21184">
        <ele>521</ele>
        <time>2012-11-13T14:27:33Z</time>
      </trkpt>
      <trkpt lat="45.5584" lon="3.21216">
        <ele>518</ele>
        <time>2012-11-13T14:27:35Z</time>
      </trkpt>
      <trkpt lat="45.55837" lon="3.21247">
        <ele>519</ele>
        <time>2012-11-13T14:27:37Z</time>
      </trkpt>
      <trkpt lat="45.55835" lon="3.21276">
        <ele>514</ele>
        <time>2012-11-13T14:27:39Z</time>
      </trkpt>
      <trkpt lat="45.55832" lon="3.21305">
        <ele>520</ele>
        <time>2012-11-13T14:27:41Z</time>
      </trkpt>
      <trkpt lat="45.5583" lon="3.21335">
        <ele>513</ele>
        <time>2012-11-13T14:27:43Z</time>
      </trkpt>
      <trkpt lat="45.55828" lon="3.21365">
        <ele>514</ele>
        <time>2012-11-13T14:27:45Z</time>
      </trkpt>
      <trkpt lat="45.55823" lon="3.21394">
        <ele>512</ele>
        <time>2012-11-13T14:27:47Z</time>
      </trkpt>
      <trkpt lat="45.55821" lon="3.21424">
        <ele>507</ele>
        <time>2012-11-13T14:27:49Z</time>
      </trkpt>
      <trkpt lat="45.5582" lon="3.2145">
        <ele>507</ele>
        <time>2012-11-13T14:27:51Z</time>
      </trkpt>
      <trkpt lat="45.55818" lon="3.21478">
        <ele>505</ele>
        <time>2012-11-13T14:27:53Z</time>
      </trkpt>
      <trkpt lat="45.55813" lon="3.21505">
        <ele>500</ele>
        <time>2012-11-13T14:27:54Z</time>
      </trkpt>
      <trkpt lat="45.55811" lon="3.21531">
        <ele>500</ele>
        <time>2012-11-13T14:27:57Z</time>
      </trkpt>
      <trkpt lat="45.55807" lon="3.21557">
        <ele>499</ele>
        <time>2012-11-13T14:27:58Z</time>
      </trkpt>
      <trkpt lat="45.55803" lon="3.21586">
        <ele>494</ele>
        <time>2012-11-13T14:28:01Z</time>
      </trkpt>
      <trkpt lat="45.55798" lon="3.21622">
        <ele>492</ele>
        <time>2012-11-13T14:28:04Z</time>
      </trkpt>
      <trkpt lat="45.55791" lon="3.21655">
        <ele>491</ele>
        <time>2012-11-13T14:28:07Z</time>
      </trkpt>
      <trkpt lat="45.55787" lon="3.21685">
        <ele>485</ele>
        <time>2012-11-13T14:28:10Z</time>
      </trkpt>
      <trkpt lat="45.5578" lon="3.21719">
        <ele>483</ele>
        <time>2012-11-13T14:28:14Z</time>
      </trkpt>
      <trkpt lat="45.55775" lon="3.2175">
        <ele>479</ele>
        <time>2012-11-13T14:28:17Z</time>
      </trkpt>
      <trkpt lat="45.55768" lon="3.21778">
        <ele>479</ele>
        <time>2012-11-13T14:28:20Z</time>
      </trkpt>
      <trkpt lat="45.55758" lon="3.21806">
        <ele>478</ele>
        <time>2012-11-13T14:28:23Z</time>
      </trkpt>
      <trkpt lat="45.55746" lon="3.21832">
        <ele>476</ele>
        <time>2012-11-13T14:28:26Z</time>
      </trkpt>
      <trkpt lat="45.55733" lon="3.21861">
        <ele>474</ele>
        <time>2012-11-13T14:28:29Z</time>
      </trkpt>
      <trkpt lat="45.55721" lon="3.21887">
        <ele>473</ele>
        <time>2012-11-13T14:28:32Z</time>
      </trkpt>
      <trkpt lat="45.55709" lon="3.21913">
        <ele>472</ele>
        <time>2012-11-13T14:28:35Z</time>
      </trkpt>
      <trkpt lat="45.55699" lon="3.21942">
        <ele>470</ele>
        <time>2012-11-13T14:28:38Z</time>
      </trkpt>
      <trkpt lat="45.55694" lon="3.21978">
        <ele>469</ele>
        <time>2012-11-13T14:28:41Z</time>
      </trkpt>
      <trkpt lat="45.55691" lon="3.22003">
        <ele>467</ele>
        <time>2012-11-13T14:28:43Z</time>
      </trkpt>
      <trkpt lat="45.55688" lon="3.2204">
        <ele>466</ele>
        <time>2012-11-13T14:28:46Z</time>
      </trkpt>
      <trkpt lat="45.55685" lon="3.22066">
        <ele>465</ele>
        <time>2012-11-13T14:28:48Z</time>
      </trkpt>
      <trkpt lat="45.55682" lon="3.22104">
        <ele>463</ele>
        <time>2012-11-13T14:28:51Z</time>
      </trkpt>
      <trkpt lat="45.55682" lon="3.22131">
        <ele>462</ele>
        <time>2012-11-13T14:28:53Z</time>
      </trkpt>
      <trkpt lat="45.55677" lon="3.2217">
        <ele>459</ele>
        <time>2012-11-13T14:28:56Z</time>
      </trkpt>
      <trkpt lat="45.55669" lon="3.22205">
        <ele>459</ele>
        <time>2012-11-13T14:28:59Z</time>
      </trkpt>
      <trkpt lat="45.55657" lon="3.22238">
        <ele>457</ele>
        <time>2012-11-13T14:29:01Z</time>
      </trkpt>
      <trkpt lat="45.55648" lon="3.2227">
        <ele>455</ele>
        <time>2012-11-13T14:29:05Z</time>
      </trkpt>
      <trkpt lat="45.55641" lon="3.22295">
        <ele>455</ele>
        <time>2012-11-13T14:29:06Z</time>
      </trkpt>
      <trkpt lat="45.55631" lon="3.22325">
        <ele>454</ele>
        <time>2012-11-13T14:29:10Z</time>
      </trkpt>
      <trkpt lat="45.55625" lon="3.2235">
        <ele>453</ele>
        <time>2012-11-13T14:29:11Z</time>
      </trkpt>
      <trkpt lat="45.5561" lon="3.22381">
        <ele>452</ele>
        <time>2012-11-13T14:29:14Z</time>
      </trkpt>
      <trkpt lat="45.556" lon="3.22408">
        <ele>451</ele>
        <time>2012-11-13T14:29:18Z</time>
      </trkpt>
      <trkpt lat="45.55586" lon="3.22437">
        <ele>450</ele>
        <time>2012-11-13T14:29:21Z</time>
      </trkpt>
      <trkpt lat="45.55574" lon="3.22466">
        <ele>449</ele>
        <time>2012-11-13T14:29:24Z</time>
      </trkpt>
      <trkpt lat="45.55561" lon="3.22494">
        <ele>449</ele>
        <time>2012-11-13T14:29:27Z</time>
      </trkpt>
      <trkpt lat="45.55548" lon="3.22526">
        <ele>448</ele>
        <time>2012-11-13T14:29:30Z</time>
      </trkpt>
      <trkpt lat="45.55535" lon="3.22554">
        <ele>448</ele>
        <time>2012-11-13T14:29:33Z</time>
      </trkpt>
      <trkpt lat="45.55523" lon="3.22583">
        <ele>448</ele>
        <time>2012-11-13T14:29:36Z</time>
      </trkpt>
      <trkpt lat="45.55512" lon="3.22611">
        <ele>448</ele>
        <time>2012-11-13T14:29:39Z</time>
      </trkpt>
      <trkpt lat="45.55497" lon="3.22637">
        <ele>448</ele>
        <time>2012-11-13T14:29:42Z</time>
      </trkpt>
      <trkpt lat="45.55478" lon="3.22657">
        <ele>448</ele>
        <time>2012-11-13T14:29:45Z</time>
      </trkpt>
      <trkpt lat="45.5546" lon="3.22676">
        <ele>447</ele>
        <time>2012-11-13T14:29:48Z</time>
      </trkpt>
      <trkpt lat="45.55443" lon="3.22693">
        <ele>447</ele>
        <time>2012-11-13T14:29:51Z</time>
      </trkpt>
      <trkpt lat="45.55425" lon="3.2271">
        <ele>447</ele>
        <time>2012-11-13T14:29:54Z</time>
      </trkpt>
      <trkpt lat="45.55406" lon="3.22726">
        <ele>446</ele>
        <time>2012-11-13T14:29:57Z</time>
      </trkpt>
      <trkpt lat="45.55388" lon="3.22743">
        <ele>445</ele>
        <time>2012-11-13T14:30:00Z</time>
      </trkpt>
      <trkpt lat="45.55369" lon="3.22761">
        <ele>444</ele>
        <time>2012-11-13T14:30:03Z</time>
      </trkpt>
      <trkpt lat="45.55347" lon="3.2278">
        <ele>443</ele>
        <time>2012-11-13T14:30:06Z</time>
      </trkpt>
      <trkpt lat="45.55327" lon="3.228">
        <ele>442</ele>
        <time>2012-11-13T14:30:09Z</time>
      </trkpt>
      <trkpt lat="45.55312" lon="3.22816">
        <ele>442</ele>
        <time>2012-11-13T14:30:11Z</time>
      </trkpt>
      <trkpt lat="45.55296" lon="3.22845">
        <ele>441</ele>
        <time>2012-11-13T14:30:14Z</time>
      </trkpt>
      <trkpt lat="45.55286" lon="3.22881">
        <ele>440</ele>
        <time>2012-11-13T14:30:17Z</time>
      </trkpt>
      <trkpt lat="45.55281" lon="3.22915">
        <ele>440</ele>
        <time>2012-11-13T14:30:20Z</time>
      </trkpt>
      <trkpt lat="45.55276" lon="3.2295">
        <ele>439</ele>
        <time>2012-11-13T14:30:23Z</time>
      </trkpt>
      <trkpt lat="45.55271" lon="3.22984">
        <ele>438</ele>
        <time>2012-11-13T14:30:26Z</time>
      </trkpt>
      <trkpt lat="45.55266" lon="3.2302">
        <ele>437</ele>
        <time>2012-11-13T14:30:29Z</time>
      </trkpt>
      <trkpt lat="45.55261" lon="3.23056">
        <ele>437</ele>
        <time>2012-11-13T14:30:32Z</time>
      </trkpt>
      <trkpt lat="45.55258" lon="3.23092">
        <ele>437</ele>
        <time>2012-11-13T14:30:35Z</time>
      </trkpt>
      <trkpt lat="45.55256" lon="3.23128">
        <ele>435</ele>
        <time>2012-11-13T14:30:38Z</time>
      </trkpt>
      <trkpt lat="45.55253" lon="3.23164">
        <ele>435</ele>
        <time>2012-11-13T14:30:41Z</time>
      </trkpt>
      <trkpt lat="45.55249" lon="3.23196">
        <ele>434</ele>
        <time>2012-11-13T14:30:44Z</time>
      </trkpt>
      <trkpt lat="45.55245" lon="3.2323">
        <ele>434</ele>
        <time>2012-11-13T14:30:47Z</time>
      </trkpt>
      <trkpt lat="45.5524" lon="3.23262">
        <ele>432</ele>
        <time>2012-11-13T14:30:50Z</time>
      </trkpt>
      <trkpt lat="45.55231" lon="3.23294">
        <ele>431</ele>
        <time>2012-11-13T14:30:53Z</time>
      </trkpt>
      <trkpt lat="45.55221" lon="3.23327">
        <ele>430</ele>
        <time>2012-11-13T14:30:56Z</time>
      </trkpt>
      <trkpt lat="45.55211" lon="3.23361">
        <ele>428</ele>
        <time>2012-11-13T14:30:59Z</time>
      </trkpt>
      <trkpt lat="45.55199" lon="3.23394">
        <ele>428</ele>
        <time>2012-11-13T14:31:02Z</time>
      </trkpt>
      <trkpt lat="45.55187" lon="3.23427">
        <ele>428</ele>
        <time>2012-11-13T14:31:05Z</time>
      </trkpt>
      <trkpt lat="45.55176" lon="3.23458">
        <ele>427</ele>
        <time>2012-11-13T14:31:08Z</time>
      </trkpt>
      <trkpt lat="45.55165" lon="3.23491">
        <ele>427</ele>
        <time>2012-11-13T14:31:11Z</time>
      </trkpt>
      <trkpt lat="45.55154" lon="3.23522">
        <ele>427</ele>
        <time>2012-11-13T14:31:14Z</time>
      </trkpt>
      <trkpt lat="45.55142" lon="3.23554">
        <ele>426</ele>
        <time>2012-11-13T14:31:17Z</time>
      </trkpt>
      <trkpt lat="45.55132" lon="3.23583">
        <ele>426</ele>
        <time>2012-11-13T14:31:20Z</time>
      </trkpt>
      <trkpt lat="45.55122" lon="3.23614">
        <ele>426</ele>
        <time>2012-11-13T14:31:23Z</time>
      </trkpt>
      <trkpt lat="45.55112" lon="3.23645">
        <ele>426</ele>
        <time>2012-11-13T14:31:26Z</time>
      </trkpt>
      <trkpt lat="45.55099" lon="3.23675">
        <ele>426</ele>
        <time>2012-11-13T14:31:29Z</time>
      </trkpt>
      <trkpt lat="45.55082" lon="3.23704">
        <ele>425</ele>
        <time>2012-11-13T14:31:32Z</time>
      </trkpt>
      <trkpt lat="45.55068" lon="3.23731">
        <ele>424</ele>
        <time>2012-11-13T14:31:35Z</time>
      </trkpt>
      <trkpt lat="45.5505" lon="3.23758">
        <ele>423</ele>
        <time>2012-11-13T14:31:38Z</time>
      </trkpt>
      <trkpt lat="45.55031" lon="3.23783">
        <ele>422</ele>
        <time>2012-11-13T14:31:41Z</time>
      </trkpt>
      <trkpt lat="45.55011" lon="3.2381">
        <ele>422</ele>
        <time>2012-11-13T14:31:44Z</time>
      </trkpt>
      <trkpt lat="45.54991" lon="3.23834">
        <ele>418</ele>
        <time>2012-11-13T14:31:47Z</time>
      </trkpt>
      <trkpt lat="45.54976" lon="3.2385">
        <ele>416</ele>
        <time>2012-11-13T14:31:48Z</time>
      </trkpt>
      <trkpt lat="45.5496" lon="3.23868">
        <ele>415</ele>
        <time>2012-11-13T14:31:51Z</time>
      </trkpt>
      <trkpt lat="45.54942" lon="3.23886">
        <ele>414</ele>
        <time>2012-11-13T14:31:53Z</time>
      </trkpt>
      <trkpt lat="45.54927" lon="3.23904">
        <ele>412</ele>
        <time>2012-11-13T14:31:55Z</time>
      </trkpt>
      <trkpt lat="45.5491" lon="3.23922">
        <ele>408</ele>
        <time>2012-11-13T14:31:57Z</time>
      </trkpt>
      <trkpt lat="45.54891" lon="3.23938">
        <ele>407</ele>
        <time>2012-11-13T14:31:59Z</time>
      </trkpt>
      <trkpt lat="45.54872" lon="3.23952">
        <ele>406</ele>
        <time>2012-11-13T14:32:01Z</time>
      </trkpt>
      <trkpt lat="45.54854" lon="3.23968">
        <ele>405</ele>
        <time>2012-11-13T14:32:03Z</time>
      </trkpt>
      <trkpt lat="45.54835" lon="3.23983">
        <ele>404</ele>
        <time>2012-11-13T14:32:05Z</time>
      </trkpt>
      <trkpt lat="45.54815" lon="3.23999">
        <ele>401</ele>
        <time>2012-11-13T14:32:07Z</time>
      </trkpt>
      <trkpt lat="45.54796" lon="3.24016">
        <ele>401</ele>
        <time>2012-11-13T14:32:09Z</time>
      </trkpt>
      <trkpt lat="45.5478" lon="3.24032">
        <ele>400</ele>
        <time>2012-11-13T14:32:11Z</time>
      </trkpt>
      <trkpt lat="45.54766" lon="3.24051">
        <ele>400</ele>
        <time>2012-11-13T14:32:13Z</time>
      </trkpt>
      <trkpt lat="45.54751" lon="3.24067">
        <ele>399</ele>
        <time>2012-11-13T14:32:15Z</time>
      </trkpt>
      <trkpt lat="45.54733" lon="3.2409">
        <ele>397</ele>
        <time>2012-11-13T14:32:18Z</time>
      </trkpt>
      <trkpt lat="45.54718" lon="3.24112">
        <ele>396</ele>
        <time>2012-11-13T14:32:21Z</time>
      </trkpt>
      <trkpt lat="45.54703" lon="3.2413">
        <ele>396</ele>
        <time>2012-11-13T14:32:24Z</time>
      </trkpt>
      <trkpt lat="45.54687" lon="3.24147">
        <ele>395</ele>
        <time>2012-11-13T14:32:27Z</time>
      </trkpt>
      <trkpt lat="45.5467" lon="3.24163">
        <ele>394</ele>
        <time>2012-11-13T14:32:30Z</time>
      </trkpt>
      <trkpt lat="45.54654" lon="3.24184">
        <ele>393</ele>
        <time>2012-11-13T14:32:33Z</time>
      </trkpt>
      <trkpt lat="45.54642" lon="3.24206">
        <ele>392</ele>
        <time>2012-11-13T14:32:37Z</time>
      </trkpt>
      <trkpt lat="45.54623" lon="3.24206">
        <ele>392</ele>
        <time>2012-11-13T14:32:44Z</time>
      </trkpt>
      <trkpt lat="45.54608" lon="3.24187">
        <ele>392</ele>
        <time>2012-11-13T14:32:49Z</time>
      </trkpt>
      <trkpt lat="45.54585" lon="3.24184">
        <ele>391</ele>
        <time>2012-11-13T14:32:56Z</time>
      </trkpt>
      <trkpt lat="45.54567" lon="3.2419">
        <ele>391</ele>
        <time>2012-11-13T14:32:59Z</time>
      </trkpt>
      <trkpt lat="45.54544" lon="3.24194">
        <ele>391</ele>
        <time>2012-11-13T14:33:03Z</time>
      </trkpt>
      <trkpt lat="45.54524" lon="3.2418">
        <ele>391</ele>
        <time>2012-11-13T14:33:09Z</time>
      </trkpt>
      <trkpt lat="45.54503" lon="3.24174">
        <ele>392</ele>
        <time>2012-11-13T14:33:13Z</time>
      </trkpt>
      <trkpt lat="45.54483" lon="3.2417">
        <ele>392</ele>
        <time>2012-11-13T14:33:17Z</time>
      </trkpt>
      <trkpt lat="45.54463" lon="3.24163">
        <ele>392</ele>
        <time>2012-11-13T14:33:21Z</time>
      </trkpt>
      <trkpt lat="45.54443" lon="3.24155">
        <ele>392</ele>
        <time>2012-11-13T14:33:25Z</time>
      </trkpt>
      <trkpt lat="45.54418" lon="3.24155">
        <ele>392</ele>
        <time>2012-11-13T14:33:29Z</time>
      </trkpt>
      <trkpt lat="45.54399" lon="3.24162">
        <ele>392</ele>
        <time>2012-11-13T14:33:32Z</time>
      </trkpt>
      <trkpt lat="45.54376" lon="3.24161">
        <ele>392</ele>
        <time>2012-11-13T14:33:36Z</time>
      </trkpt>
      <trkpt lat="45.54354" lon="3.24162">
        <ele>392</ele>
        <time>2012-11-13T14:33:39Z</time>
      </trkpt>
      <trkpt lat="45.54334" lon="3.24161">
        <ele>392</ele>
        <time>2012-11-13T14:33:42Z</time>
      </trkpt>
      <trkpt lat="45.54314" lon="3.24162">
        <ele>392</ele>
        <time>2012-11-13T14:33:45Z</time>
      </trkpt>
      <trkpt lat="45.54295" lon="3.24167">
        <ele>392</ele>
        <time>2012-11-13T14:33:48Z</time>
      </trkpt>
      <trkpt lat="45.54278" lon="3.24171">
        <ele>392</ele>
        <time>2012-11-13T14:33:51Z</time>
      </trkpt>
      <trkpt lat="45.54259" lon="3.24179">
        <ele>392</ele>
        <time>2012-11-13T14:33:54Z</time>
      </trkpt>
      <trkpt lat="45.54241" lon="3.24186">
        <ele>393</ele>
        <time>2012-11-13T14:33:57Z</time>
      </trkpt>
      <trkpt lat="45.54218" lon="3.24195">
        <ele>392</ele>
        <time>2012-11-13T14:34:01Z</time>
      </trkpt>
      <trkpt lat="45.542" lon="3.24203">
        <ele>392</ele>
        <time>2012-11-13T14:34:04Z</time>
      </trkpt>
      <trkpt lat="45.54182" lon="3.2421">
        <ele>392</ele>
        <time>2012-11-13T14:34:07Z</time>
      </trkpt>
      <trkpt lat="45.54161" lon="3.24222">
        <ele>392</ele>
        <time>2012-11-13T14:34:11Z</time>
      </trkpt>
      <trkpt lat="45.54143" lon="3.24235">
        <ele>392</ele>
        <time>2012-11-13T14:34:15Z</time>
      </trkpt>
      <trkpt lat="45.54121" lon="3.24248">
        <ele>392</ele>
        <time>2012-11-13T14:34:19Z</time>
      </trkpt>
      <trkpt lat="45.54102" lon="3.24259">
        <ele>391</ele>
        <time>2012-11-13T14:34:22Z</time>
      </trkpt>
      <trkpt lat="45.54084" lon="3.24268">
        <ele>391</ele>
        <time>2012-11-13T14:34:25Z</time>
      </trkpt>
      <trkpt lat="45.54063" lon="3.24284">
        <ele>389</ele>
        <time>2012-11-13T14:34:28Z</time>
      </trkpt>
      <trkpt lat="45.54043" lon="3.24295">
        <ele>389</ele>
        <time>2012-11-13T14:34:31Z</time>
      </trkpt>
      <trkpt lat="45.54026" lon="3.24306">
        <ele>389</ele>
        <time>2012-11-13T14:34:34Z</time>
      </trkpt>
      <trkpt lat="45.54009" lon="3.24317">
        <ele>388</ele>
        <time>2012-11-13T14:34:37Z</time>
      </trkpt>
      <trkpt lat="45.53988" lon="3.24329">
        <ele>388</ele>
        <time>2012-11-13T14:34:41Z</time>
      </trkpt>
      <trkpt lat="45.53966" lon="3.24342">
        <ele>388</ele>
        <time>2012-11-13T14:34:45Z</time>
      </trkpt>
      <trkpt lat="45.53945" lon="3.24356">
        <ele>389</ele>
        <time>2012-11-13T14:34:49Z</time>
      </trkpt>
      <trkpt lat="45.53924" lon="3.24368">
        <ele>389</ele>
        <time>2012-11-13T14:34:53Z</time>
      </trkpt>
      <trkpt lat="45.53902" lon="3.24382">
        <ele>391</ele>
        <time>2012-11-13T14:34:57Z</time>
      </trkpt>
      <trkpt lat="45.53882" lon="3.24387">
        <ele>392</ele>
        <time>2012-11-13T14:35:01Z</time>
      </trkpt>
      <trkpt lat="45.5387" lon="3.24367">
        <ele>392</ele>
        <time>2012-11-13T14:35:05Z</time>
      </trkpt>
      <trkpt lat="45.53861" lon="3.24339">
        <ele>393</ele>
        <time>2012-11-13T14:35:09Z</time>
      </trkpt>
      <trkpt lat="45.53854" lon="3.2431">
        <ele>393</ele>
        <time>2012-11-13T14:35:13Z</time>
      </trkpt>
      <trkpt lat="45.53845" lon="3.24283">
        <ele>393</ele>
        <time>2012-11-13T14:35:17Z</time>
      </trkpt>
      <trkpt lat="45.53835" lon="3.24255">
        <ele>394</ele>
        <time>2012-11-13T14:35:21Z</time>
      </trkpt>
      <trkpt lat="45.53825" lon="3.24227">
        <ele>394</ele>
        <time>2012-11-13T14:35:25Z</time>
      </trkpt>
      <trkpt lat="45.53816" lon="3.24199">
        <ele>394</ele>
        <time>2012-11-13T14:35:29Z</time>
      </trkpt>
      <trkpt lat="45.5381" lon="3.24174">
        <ele>394</ele>
        <time>2012-11-13T14:35:33Z</time>
      </trkpt>
      <trkpt lat="45.53801" lon="3.24148">
        <ele>394</ele>
        <time>2012-11-13T14:35:38Z</time>
      </trkpt>
      <trkpt lat="45.53797" lon="3.24118">
        <ele>395</ele>
        <time>2012-11-13T14:37:14Z</time>
      </trkpt>
      <trkpt lat="45.53787" lon="3.24091">
        <ele>395</ele>
        <time>2012-11-13T14:37:20Z</time>
      </trkpt>
      <trkpt lat="45.53779" lon="3.24063">
        <ele>396</ele>
        <time>2012-11-13T14:37:25Z</time>
      </trkpt>
      <trkpt lat="45.5377" lon="3.24033">
        <ele>395</ele>
        <time>2012-11-13T14:37:30Z</time>
      </trkpt>
      <trkpt lat="45.53762" lon="3.24009">
        <ele>395</ele>
        <time>2012-11-13T14:37:34Z</time>
      </trkpt>
      <trkpt lat="45.53754" lon="3.23985">
        <ele>395</ele>
        <time>2012-11-13T14:37:38Z</time>
      </trkpt>
      <trkpt lat="45.53745" lon="3.23958">
        <ele>397</ele>
        <time>2012-11-13T14:37:42Z</time>
      </trkpt>
      <trkpt lat="45.53735" lon="3.23929">
        <ele>397</ele>
        <time>2012-11-13T14:37:46Z</time>
      </trkpt>
      <trkpt lat="45.53727" lon="3.23902">
        <ele>398</ele>
        <time>2012-11-13T14:37:50Z</time>
      </trkpt>
      <trkpt lat="45.53716" lon="3.23875">
        <ele>399</ele>
        <time>2012-11-13T14:37:54Z</time>
      </trkpt>
      <trkpt lat="45.53708" lon="3.23848">
        <ele>400</ele>
        <time>2012-11-13T14:37:58Z</time>
      </trkpt>
      <trkpt lat="45.53697" lon="3.23819">
        <ele>401</ele>
        <time>2012-11-13T14:38:03Z</time>
      </trkpt>
      <trkpt lat="45.53689" lon="3.23792">
        <ele>402</ele>
        <time>2012-11-13T14:38:07Z</time>
      </trkpt>
      <trkpt lat="45.53681" lon="3.23764">
        <ele>402</ele>
        <time>2012-11-13T14:38:11Z</time>
      </trkpt>
      <trkpt lat="45.53673" lon="3.2374">
        <ele>403</ele>
        <time>2012-11-13T14:38:16Z</time>
      </trkpt>
      <trkpt lat="45.53666" lon="3.23713">
        <ele>410</ele>
        <time>2012-11-13T14:38:22Z</time>
      </trkpt>
      <trkpt lat="45.53659" lon="3.23685">
        <ele>410</ele>
        <time>2012-11-13T14:38:28Z</time>
      </trkpt>
      <trkpt lat="45.53648" lon="3.2366">
        <ele>412</ele>
        <time>2012-11-13T14:38:35Z</time>
      </trkpt>
      <trkpt lat="45.5364" lon="3.23635">
        <ele>414</ele>
        <time>2012-11-13T14:38:44Z</time>
      </trkpt>
      <trkpt lat="45.53633" lon="3.23608">
        <ele>415</ele>
        <time>2012-11-13T14:38:53Z</time>
      </trkpt>
      <trkpt lat="45.53626" lon="3.23583">
        <ele>417</ele>
        <time>2012-11-13T14:39:01Z</time>
      </trkpt>
      <trkpt lat="45.53621" lon="3.23557">
        <ele>418</ele>
        <time>2012-11-13T14:39:08Z</time>
      </trkpt>
      <trkpt lat="45.53615" lon="3.23531">
        <ele>419</ele>
        <time>2012-11-13T14:39:16Z</time>
      </trkpt>
      <trkpt lat="45.53607" lon="3.23506">
        <ele>421</ele>
        <time>2012-11-13T14:39:26Z</time>
      </trkpt>
      <trkpt lat="45.53589" lon="3.23508">
        <ele>423</ele>
        <time>2012-11-13T14:39:37Z</time>
      </trkpt>
      <trkpt lat="45.53575" lon="3.23527">
        <ele>428</ele>
        <time>2012-11-13T14:39:46Z</time>
      </trkpt>
      <trkpt lat="45.53562" lon="3.2355">
        <ele>428</ele>
        <time>2012-11-13T14:39:54Z</time>
      </trkpt>
      <trkpt lat="45.53549" lon="3.23572">
        <ele>429</ele>
        <time>2012-11-13T14:40:02Z</time>
      </trkpt>
      <trkpt lat="45.53535" lon="3.2359">
        <ele>428</ele>
        <time>2012-11-13T14:40:10Z</time>
      </trkpt>
      <trkpt lat="45.53517" lon="3.23593">
        <ele>430</ele>
        <time>2012-11-13T14:40:17Z</time>
      </trkpt>
      <trkpt lat="45.535" lon="3.23579">
        <ele>434</ele>
        <time>2012-11-13T14:40:24Z</time>
      </trkpt>
      <trkpt lat="45.53484" lon="3.2356">
        <ele>436</ele>
        <time>2012-11-13T14:40:31Z</time>
      </trkpt>
      <trkpt lat="45.53468" lon="3.23542">
        <ele>437</ele>
        <time>2012-11-13T14:40:38Z</time>
      </trkpt>
      <trkpt lat="45.53452" lon="3.23526">
        <ele>438</ele>
        <time>2012-11-13T14:40:45Z</time>
      </trkpt>
      <trkpt lat="45.53438" lon="3.23508">
        <ele>439</ele>
        <time>2012-11-13T14:40:52Z</time>
      </trkpt>
      <trkpt lat="45.53424" lon="3.23491">
        <ele>441</ele>
        <time>2012-11-13T14:40:59Z</time>
      </trkpt>
      <trkpt lat="45.5341" lon="3.23475">
        <ele>443</ele>
        <time>2012-11-13T14:41:07Z</time>
      </trkpt>
      <trkpt lat="45.53396" lon="3.23458">
        <ele>444</ele>
        <time>2012-11-13T14:41:15Z</time>
      </trkpt>
      <trkpt lat="45.5338" lon="3.23443">
        <ele>445</ele>
        <time>2012-11-13T14:41:22Z</time>
      </trkpt>
      <trkpt lat="45.53365" lon="3.23427">
        <ele>445</ele>
        <time>2012-11-13T14:41:29Z</time>
      </trkpt>
      <trkpt lat="45.5335" lon="3.23408">
        <ele>448</ele>
        <time>2012-11-13T14:41:38Z</time>
      </trkpt>
      <trkpt lat="45.53336" lon="3.23389">
        <ele>449</ele>
        <time>2012-11-13T14:41:46Z</time>
      </trkpt>
      <trkpt lat="45.53321" lon="3.23368">
        <ele>451</ele>
        <time>2012-11-13T14:41:53Z</time>
      </trkpt>
      <trkpt lat="45.53307" lon="3.23347">
        <ele>452</ele>
        <time>2012-11-13T14:41:59Z</time>
      </trkpt>
      <trkpt lat="45.53293" lon="3.23326">
        <ele>453</ele>
        <time>2012-11-13T14:42:05Z</time>
      </trkpt>
      <trkpt lat="45.5328" lon="3.23306">
        <ele>453</ele>
        <time>2012-11-13T14:42:10Z</time>
      </trkpt>
      <trkpt lat="45.53269" lon="3.23283">
        <ele>453</ele>
        <time>2012-11-13T14:42:15Z</time>
      </trkpt>
      <trkpt lat="45.53256" lon="3.23262">
        <ele>453</ele>
        <time>2012-11-13T14:42:20Z</time>
      </trkpt>
      <trkpt lat="45.53243" lon="3.2324">
        <ele>455</ele>
        <time>2012-11-13T14:42:25Z</time>
      </trkpt>
      <trkpt lat="45.53229" lon="3.23219">
        <ele>455</ele>
        <time>2012-11-13T14:42:31Z</time>
      </trkpt>
      <trkpt lat="45.53215" lon="3.23197">
        <ele>456</ele>
        <time>2012-11-13T14:42:37Z</time>
      </trkpt>
      <trkpt lat="45.53201" lon="3.23175">
        <ele>456</ele>
        <time>2012-11-13T14:42:43Z</time>
      </trkpt>
      <trkpt lat="45.53186" lon="3.23157">
        <ele>456</ele>
        <time>2012-11-13T14:42:48Z</time>
      </trkpt>
      <trkpt lat="45.53169" lon="3.2314">
        <ele>456</ele>
        <time>2012-11-13T14:42:53Z</time>
      </trkpt>
      <trkpt lat="45.53153" lon="3.23124">
        <ele>456</ele>
        <time>2012-11-13T14:42:57Z</time>
      </trkpt>
      <trkpt lat="45.53135" lon="3.2311">
        <ele>456</ele>
        <time>2012-11-13T14:43:01Z</time>
      </trkpt>
      <trkpt lat="45.53115" lon="3.23097">
        <ele>456</ele>
        <time>2012-11-13T14:43:05Z</time>
      </trkpt>
      <trkpt lat="45.53094" lon="3.23085">
        <ele>457</ele>
        <time>2012-11-13T14:43:09Z</time>
      </trkpt>
      <trkpt lat="45.53074" lon="3.23073">
        <ele>456</ele>
        <time>2012-11-13T14:43:13Z</time>
      </trkpt>
      <trkpt lat="45.53054" lon="3.23058">
        <ele>456</ele>
        <time>2012-11-13T14:43:17Z</time>
      </trkpt>
      <trkpt lat="45.53038" lon="3.23039">
        <ele>456</ele>
        <time>2012-11-13T14:43:21Z</time>
      </trkpt>
      <trkpt lat="45.53024" lon="3.23016">
        <ele>456</ele>
        <time>2012-11-13T14:43:25Z</time>
      </trkpt>
      <trkpt lat="45.53014" lon="3.2299">
        <ele>456</ele>
        <time>2012-11-13T14:43:29Z</time>
      </trkpt>
      <trkpt lat="45.53009" lon="3.22965">
        <ele>457</ele>
        <time>2012-11-13T14:43:32Z</time>
      </trkpt>
      <trkpt lat="45.53003" lon="3.2294">
        <ele>457</ele>
        <time>2012-11-13T14:43:35Z</time>
      </trkpt>
      <trkpt lat="45.52995" lon="3.22916">
        <ele>457</ele>
        <time>2012-11-13T14:43:38Z</time>
      </trkpt>
      <trkpt lat="45.52988" lon="3.22891">
        <ele>456</ele>
        <time>2012-11-13T14:43:41Z</time>
      </trkpt>
      <trkpt lat="45.52974" lon="3.22867">
        <ele>456</ele>
        <time>2012-11-13T14:43:45Z</time>
      </trkpt>
      <trkpt lat="45.52959" lon="3.22843">
        <ele>456</ele>
        <time>2012-11-13T14:43:49Z</time>
      </trkpt>
      <trkpt lat="45.52945" lon="3.22827">
        <ele>458</ele>
        <time>2012-11-13T14:43:53Z</time>
      </trkpt>
      <trkpt lat="45.52928" lon="3.22812">
        <ele>457</ele>
        <time>2012-11-13T14:43:57Z</time>
      </trkpt>
      <trkpt lat="45.52909" lon="3.22795">
        <ele>458</ele>
        <time>2012-11-13T14:44:02Z</time>
      </trkpt>
      <trkpt lat="45.5289" lon="3.22778">
        <ele>458</ele>
        <time>2012-11-13T14:44:07Z</time>
      </trkpt>
      <trkpt lat="45.52873" lon="3.22764">
        <ele>458</ele>
        <time>2012-11-13T14:44:11Z</time>
      </trkpt>
      <trkpt lat="45.52854" lon="3.22747">
        <ele>460</ele>
        <time>2012-11-13T14:44:16Z</time>
      </trkpt>
      <trkpt lat="45.52836" lon="3.22729">
        <ele>460</ele>
        <time>2012-11-13T14:44:21Z</time>
      </trkpt>
      <trkpt lat="45.52819" lon="3.22711">
        <ele>461</ele>
        <time>2012-11-13T14:44:26Z</time>
      </trkpt>
      <trkpt lat="45.52804" lon="3.22694">
        <ele>462</ele>
        <time>2012-11-13T14:44:31Z</time>
      </trkpt>
      <trkpt lat="45.52787" lon="3.22679">
        <ele>462</ele>
        <time>2012-11-13T14:44:37Z</time>
      </trkpt>
      <trkpt lat="45.52769" lon="3.22667">
        <ele>463</ele>
        <time>2012-11-13T14:44:43Z</time>
      </trkpt>
      <trkpt lat="45.52752" lon="3.22657">
        <ele>465</ele>
        <time>2012-11-13T14:44:49Z</time>
      </trkpt>
      <trkpt lat="45.52734" lon="3.22644">
        <ele>467</ele>
        <time>2012-11-13T14:44:56Z</time>
      </trkpt>
      <trkpt lat="45.52717" lon="3.22631">
        <ele>468</ele>
        <time>2012-11-13T14:45:03Z</time>
      </trkpt>
      <trkpt lat="45.52701" lon="3.22617">
        <ele>469</ele>
        <time>2012-11-13T14:45:10Z</time>
      </trkpt>
      <trkpt lat="45.52686" lon="3.22603">
        <ele>470</ele>
        <time>2012-11-13T14:45:17Z</time>
      </trkpt>
      <trkpt lat="45.52669" lon="3.22585">
        <ele>472</ele>
        <time>2012-11-13T14:45:24Z</time>
      </trkpt>
      <trkpt lat="45.52656" lon="3.22566">
        <ele>472</ele>
        <time>2012-11-13T14:45:31Z</time>
      </trkpt>
      <trkpt lat="45.52637" lon="3.22579">
        <ele>472</ele>
        <time>2012-11-13T14:45:41Z</time>
      </trkpt>
      <trkpt lat="45.52631" lon="3.22608">
        <ele>468</ele>
        <time>2012-11-13T14:45:45Z</time>
      </trkpt>
      <trkpt lat="45.52624" lon="3.22633">
        <ele>467</ele>
        <time>2012-11-13T14:45:48Z</time>
      </trkpt>
      <trkpt lat="45.52618" lon="3.22657">
        <ele>467</ele>
        <time>2012-11-13T14:45:52Z</time>
      </trkpt>
      <trkpt lat="45.52613" lon="3.22686">
        <ele>464</ele>
        <time>2012-11-13T14:45:59Z</time>
      </trkpt>
      <trkpt lat="45.52612" lon="3.22714">
        <ele>463</ele>
        <time>2012-11-13T14:46:04Z</time>
      </trkpt>
      <trkpt lat="45.52593" lon="3.22699">
        <ele>464</ele>
        <time>2012-11-13T14:46:10Z</time>
      </trkpt>
      <trkpt lat="45.52579" lon="3.22682">
        <ele>463</ele>
        <time>2012-11-13T14:46:14Z</time>
      </trkpt>
      <trkpt lat="45.5256" lon="3.22662">
        <ele>465</ele>
        <time>2012-11-13T14:46:18Z</time>
      </trkpt>
      <trkpt lat="45.52549" lon="3.2264">
        <ele>464</ele>
        <time>2012-11-13T14:46:21Z</time>
      </trkpt>
      <trkpt lat="45.52538" lon="3.22616">
        <ele>465</ele>
        <time>2012-11-13T14:46:25Z</time>
      </trkpt>
      <trkpt lat="45.52519" lon="3.226">
        <ele>464</ele>
        <time>2012-11-13T14:46:30Z</time>
      </trkpt>
      <trkpt lat="45.52499" lon="3.22599">
        <ele>465</ele>
        <time>2012-11-13T14:46:34Z</time>
      </trkpt>
      <trkpt lat="45.52481" lon="3.22591">
        <ele>466</ele>
        <time>2012-11-13T14:46:38Z</time>
      </trkpt>
      <trkpt lat="45.52465" lon="3.2257">
        <ele>468</ele>
        <time>2012-11-13T14:46:43Z</time>
      </trkpt>
      <trkpt lat="45.52452" lon="3.22551">
        <ele>469</ele>
        <time>2012-11-13T14:46:49Z</time>
      </trkpt>
      <trkpt lat="45.52437" lon="3.22531">
        <ele>470</ele>
        <time>2012-11-13T14:46:56Z</time>
      </trkpt>
      <trkpt lat="45.52427" lon="3.22508">
        <ele>472</ele>
        <time>2012-11-13T14:47:02Z</time>
      </trkpt>
      <trkpt lat="45.52416" lon="3.22482">
        <ele>475</ele>
        <time>2012-11-13T14:47:09Z</time>
      </trkpt>
      <trkpt lat="45.52401" lon="3.22466">
        <ele>476</ele>
        <time>2012-11-13T14:47:16Z</time>
      </trkpt>
      <trkpt lat="45.52385" lon="3.2245">
        <ele>476</ele>
        <time>2012-11-13T14:47:22Z</time>
      </trkpt>
      <trkpt lat="45.52369" lon="3.22435">
        <ele>477</ele>
        <time>2012-11-13T14:47:29Z</time>
      </trkpt>
      <trkpt lat="45.52351" lon="3.22418">
        <ele>478</ele>
        <time>2012-11-13T14:47:35Z</time>
      </trkpt>
      <trkpt lat="45.52334" lon="3.22402">
        <ele>478</ele>
        <time>2012-11-13T14:47:41Z</time>
      </trkpt>
      <trkpt lat="45.52316" lon="3.22386">
        <ele>483</ele>
        <time>2012-11-13T14:47:47Z</time>
      </trkpt>
      <trkpt lat="45.52299" lon="3.22377">
        <ele>484</ele>
        <time>2012-11-13T14:47:53Z</time>
      </trkpt>
      <trkpt lat="45.52281" lon="3.22361">
        <ele>484</ele>
        <time>2012-11-13T14:48:01Z</time>
      </trkpt>
      <trkpt lat="45.52262" lon="3.22352">
        <ele>485</ele>
        <time>2012-11-13T14:48:07Z</time>
      </trkpt>
      <trkpt lat="45.52247" lon="3.22333">
        <ele>487</ele>
        <time>2012-11-13T14:48:14Z</time>
      </trkpt>
      <trkpt lat="45.52234" lon="3.2231">
        <ele>489</ele>
        <time>2012-11-13T14:48:22Z</time>
      </trkpt>
      <trkpt lat="45.52221" lon="3.22291">
        <ele>490</ele>
        <time>2012-11-13T14:48:30Z</time>
      </trkpt>
      <trkpt lat="45.52208" lon="3.22272">
        <ele>491</ele>
        <time>2012-11-13T14:48:37Z</time>
      </trkpt>
      <trkpt lat="45.522" lon="3.22247">
        <ele>492</ele>
        <time>2012-11-13T14:48:44Z</time>
      </trkpt>
      <trkpt lat="45.52187" lon="3.22226">
        <ele>492</ele>
        <time>2012-11-13T14:48:52Z</time>
      </trkpt>
      <trkpt lat="45.52172" lon="3.22209">
        <ele>492</ele>
        <time>2012-11-13T14:49:02Z</time>
      </trkpt>
      <trkpt lat="45.52157" lon="3.22193">
        <ele>496</ele>
        <time>2012-11-13T14:49:13Z</time>
      </trkpt>
      <trkpt lat="45.52141" lon="3.22177">
        <ele>497</ele>
        <time>2012-11-13T14:49:24Z</time>
      </trkpt>
      <trkpt lat="45.52127" lon="3.22161">
        <ele>499</ele>
        <time>2012-11-13T14:49:35Z</time>
      </trkpt>
      <trkpt lat="45.5211" lon="3.22147">
        <ele>500</ele>
        <time>2012-11-13T14:49:47Z</time>
      </trkpt>
      <trkpt lat="45.52094" lon="3.22133">
        <ele>501</ele>
        <time>2012-11-13T14:49:59Z</time>
      </trkpt>
      <trkpt lat="45.52077" lon="3.22119">
        <ele>506</ele>
        <time>2012-11-13T14:50:09Z</time>
      </trkpt>
      <trkpt lat="45.52059" lon="3.22107">
        <ele>507</ele>
        <time>2012-11-13T14:50:19Z</time>
      </trkpt>
      <trkpt lat="45.52041" lon="3.22102">
        <ele>507</ele>
        <time>2012-11-13T14:50:27Z</time>
      </trkpt>
      <trkpt lat="45.52021" lon="3.22097">
        <ele>508</ele>
        <time>2012-11-13T14:50:34Z</time>
      </trkpt>
      <trkpt lat="45.52002" lon="3.22093">
        <ele>509</ele>
        <time>2012-11-13T14:50:41Z</time>
      </trkpt>
      <trkpt lat="45.51983" lon="3.22089">
        <ele>512</ele>
        <time>2012-11-13T14:50:49Z</time>
      </trkpt>
      <trkpt lat="45.51964" lon="3.22081">
        <ele>513</ele>
        <time>2012-11-13T14:50:57Z</time>
      </trkpt>
      <trkpt lat="45.51945" lon="3.22074">
        <ele>515</ele>
        <time>2012-11-13T14:51:04Z</time>
      </trkpt>
      <trkpt lat="45.51926" lon="3.22065">
        <ele>515</ele>
        <time>2012-11-13T14:51:12Z</time>
      </trkpt>
      <trkpt lat="45.51906" lon="3.22061">
        <ele>519</ele>
        <time>2012-11-13T14:51:20Z</time>
      </trkpt>
      <trkpt lat="45.51888" lon="3.22061">
        <ele>520</ele>
        <time>2012-11-13T14:51:27Z</time>
      </trkpt>
      <trkpt lat="45.51868" lon="3.22061">
        <ele>521</ele>
        <time>2012-11-13T14:51:34Z</time>
      </trkpt>
      <trkpt lat="45.51847" lon="3.22064">
        <ele>522</ele>
        <time>2012-11-13T14:51:41Z</time>
      </trkpt>
      <trkpt lat="45.51829" lon="3.22066">
        <ele>525</ele>
        <time>2012-11-13T14:51:47Z</time>
      </trkpt>
      <trkpt lat="45.51808" lon="3.22068">
        <ele>525</ele>
        <time>2012-11-13T14:51:53Z</time>
      </trkpt>
      <trkpt lat="45.51789" lon="3.22069">
        <ele>526</ele>
        <time>2012-11-13T14:52:00Z</time>
      </trkpt>
      <trkpt lat="45.5177" lon="3.22066">
        <ele>527</ele>
        <time>2012-11-13T14:52:07Z</time>
      </trkpt>
      <trkpt lat="45.51752" lon="3.2206">
        <ele>527</ele>
        <time>2012-11-13T14:52:13Z</time>
      </trkpt>
      <trkpt lat="45.51733" lon="3.22049">
        <ele>531</ele>
        <time>2012-11-13T14:52:19Z</time>
      </trkpt>
      <trkpt lat="45.51715" lon="3.22042">
        <ele>532</ele>
        <time>2012-11-13T14:52:25Z</time>
      </trkpt>
      <trkpt lat="45.51696" lon="3.22034">
        <ele>532</ele>
        <time>2012-11-13T14:52:31Z</time>
      </trkpt>
      <trkpt lat="45.51678" lon="3.22022">
        <ele>532</ele>
        <time>2012-11-13T14:52:38Z</time>
      </trkpt>
      <trkpt lat="45.51662" lon="3.22004">
        <ele>534</ele>
        <time>2012-11-13T14:52:45Z</time>
      </trkpt>
      <trkpt lat="45.51646" lon="3.21987">
        <ele>536</ele>
        <time>2012-11-13T14:52:52Z</time>
      </trkpt>
      <trkpt lat="45.51629" lon="3.21976">
        <ele>537</ele>
        <time>2012-11-13T14:53:00Z</time>
      </trkpt>
      <trkpt lat="45.5161" lon="3.21967">
        <ele>538</ele>
        <time>2012-11-13T14:53:10Z</time>
      </trkpt>
      <trkpt lat="45.51592" lon="3.21962">
        <ele>539</ele>
        <time>2012-11-13T14:53:21Z</time>
      </trkpt>
      <trkpt lat="45.51574" lon="3.21958">
        <ele>545</ele>
        <time>2012-11-13T14:53:31Z</time>
      </trkpt>
      <trkpt lat="45.51554" lon="3.21952">
        <ele>545</ele>
        <time>2012-11-13T14:53:42Z</time>
      </trkpt>
      <trkpt lat="45.51535" lon="3.21944">
        <ele>546</ele>
        <time>2012-11-13T14:53:52Z</time>
      </trkpt>
      <trkpt lat="45.51517" lon="3.21943">
        <ele>547</ele>
        <time>2012-11-13T14:54:02Z</time>
      </trkpt>
      <trkpt lat="45.51499" lon="3.21946">
        <ele>550</ele>
        <time>2012-11-13T14:54:11Z</time>
      </trkpt>
      <trkpt lat="45.51482" lon="3.21955">
        <ele>550</ele>
        <time>2012-11-13T14:54:21Z</time>
      </trkpt>
      <trkpt lat="45.51463" lon="3.21958">
        <ele>550</ele>
        <time>2012-11-13T14:54:30Z</time>
      </trkpt>
      <trkpt lat="45.51444" lon="3.2195">
        <ele>551</ele>
        <time>2012-11-13T14:54:38Z</time>
      </trkpt>
      <trkpt lat="45.51427" lon="3.21939">
        <ele>551</ele>
        <time>2012-11-13T14:54:45Z</time>
      </trkpt>
      <trkpt lat="45.5141" lon="3.21924">
        <ele>552</ele>
        <time>2012-11-13T14:54:52Z</time>
      </trkpt>
      <trkpt lat="45.51394" lon="3.21913">
        <ele>553</ele>
        <time>2012-11-13T14:54:58Z</time>
      </trkpt>
      <trkpt lat="45.51376" lon="3.21904">
        <ele>553</ele>
        <time>2012-11-13T14:55:04Z</time>
      </trkpt>
      <trkpt lat="45.51357" lon="3.21892">
        <ele>553</ele>
        <time>2012-11-13T14:55:10Z</time>
      </trkpt>
      <trkpt lat="45.51339" lon="3.21889">
        <ele>553</ele>
        <time>2012-11-13T14:55:16Z</time>
      </trkpt>
      <trkpt lat="45.5132" lon="3.21887">
        <ele>554</ele>
        <time>2012-11-13T14:55:21Z</time>
      </trkpt>
      <trkpt lat="45.51302" lon="3.21884">
        <ele>554</ele>
        <time>2012-11-13T14:55:26Z</time>
      </trkpt>
      <trkpt lat="45.51282" lon="3.21884">
        <ele>555</ele>
        <time>2012-11-13T14:55:32Z</time>
      </trkpt>
      <trkpt lat="45.51264" lon="3.21878">
        <ele>555</ele>
        <time>2012-11-13T14:55:37Z</time>
      </trkpt>
      <trkpt lat="45.51247" lon="3.21867">
        <ele>556</ele>
        <time>2012-11-13T14:55:42Z</time>
      </trkpt>
      <trkpt lat="45.51228" lon="3.21863">
        <ele>556</ele>
        <time>2012-11-13T14:55:46Z</time>
      </trkpt>
      <trkpt lat="45.51209" lon="3.21863">
        <ele>556</ele>
        <time>2012-11-13T14:55:50Z</time>
      </trkpt>
      <trkpt lat="45.51189" lon="3.21864">
        <ele>556</ele>
        <time>2012-11-13T14:55:53Z</time>
      </trkpt>
      <trkpt lat="45.5117" lon="3.21866">
        <ele>556</ele>
        <time>2012-11-13T14:55:58Z</time>
      </trkpt>
      <trkpt lat="45.51149" lon="3.21867">
        <ele>556</ele>
        <time>2012-11-13T14:56:02Z</time>
      </trkpt>
      <trkpt lat="45.51128" lon="3.21867">
        <ele>556</ele>
        <time>2012-11-13T14:56:06Z</time>
      </trkpt>
    </trkseg>
  </trk>
</gpx>